Time,TemperatureF,DewpointF,PressureIn,WindDirection,WindDirectionDegrees,WindSpeedMPH,WindSpeedGustMPH,Humidity,HourlyPrecipIn,Conditions,Clouds,dailyrainin,SoftwareType,DateUTC
2013-01-14 00:00:00,56.3,55.5,30.07,West,264,0.0,1.0,97,0.00,RA,,0.00,WeatherDisplay:10.37,2013-01-14 05:00:00,
2013-01-14 00:01:00,56.4,55.6,30.07,West,267,1.1,1.1,97,0.00,RA,,0.00,WeatherDisplay:10.37,2013-01-14 05:01:00,
2013-01-14 00:03:00,56.4,55.6,30.07,West,267,0.0,0.2,97,0.00,RA,,0.01,WeatherDisplay:10.37,2013-01-14 05:03:00,
2013-01-14 00:05:00,56.5,55.7,30.07,West,267,1.1,1.1,97,0.00,RA,,0.01,WeatherDisplay:10.37,2013-01-14 05:05:00,
2013-01-14 00:06:00,56.5,55.7,30.07,WNW,285,2.0,2.0,97,0.01,RA,,0.02,WeatherDisplay:10.37,2013-01-14 05:06:00,
2013-01-14 00:07:00,56.5,55.7,30.07,West,281,2.3,2.3,97,0.01,RA,,0.02,WeatherDisplay:10.37,2013-01-14 05:07:00,
2013-01-14 00:08:00,56.5,55.7,30.07,West,281,0.0,0.0,97,0.01,RA,,0.02,WeatherDisplay:10.37,2013-01-14 05:08:00,
2013-01-14 00:10:00,56.5,55.7,30.07,West,281,1.1,1.1,97,0.01,RA,,0.03,WeatherDisplay:10.37,2013-01-14 05:10:00,
2013-01-14 00:11:00,56.5,55.7,30.06,West,281,1.1,0.0,97,0.01,RA,,0.03,WeatherDisplay:10.37,2013-01-14 05:11:00,
2013-01-14 00:12:00,56.5,55.7,30.06,West,281,0.0,0.0,97,0.01,RA,,0.03,WeatherDisplay:10.37,2013-01-14 05:12:00,
2013-01-14 00:14:00,56.5,55.7,30.06,West,281,0.0,0.0,97,0.01,RA,,0.03,WeatherDisplay:10.37,2013-01-14 05:14:00,
2013-01-14 00:15:00,56.5,55.7,30.06,West,281,0.0,0.1,97,0.02,RA,,0.04,WeatherDisplay:10.37,2013-01-14 05:15:00,
2013-01-14 00:16:00,56.5,55.7,30.06,West,281,1.1,0.0,97,0.02,RA,,0.04,WeatherDisplay:10.37,2013-01-14 05:16:00,
2013-01-14 00:17:00,56.5,55.7,30.06,West,281,1.1,0.0,97,0.02,RA,,0.04,WeatherDisplay:10.37,2013-01-14 05:17:00,
2013-01-14 00:20:00,56.5,55.7,30.06,West,279,1.1,1.1,97,0.01,RA,,0.04,WeatherDisplay:10.37,2013-01-14 05:20:00,
2013-01-14 00:21:00,56.5,55.7,30.06,West,279,1.1,1.1,97,0.01,RA,,0.04,WeatherDisplay:10.37,2013-01-14 05:21:00,
2013-01-14 00:23:00,56.5,55.7,30.06,West,279,1.1,0.0,97,0.01,RA,,0.04,WeatherDisplay:10.37,2013-01-14 05:23:00,
2013-01-14 00:25:00,56.5,55.7,30.06,West,279,0.0,0.0,97,0.01,CLR,,0.04,WeatherDisplay:10.37,2013-01-14 05:25:00,
2013-01-14 00:26:00,56.5,55.7,30.06,West,279,0.0,0.0,97,0.01,CLR,,0.04,WeatherDisplay:10.37,2013-01-14 05:26:00,
2013-01-14 00:27:00,56.5,55.7,30.06,West,279,0.0,0.0,97,0.01,CLR,,0.04,WeatherDisplay:10.37,2013-01-14 05:27:00,
2013-01-14 00:28:00,56.5,55.7,30.06,West,279,0.0,0.0,97,0.01,CLR,,0.04,WeatherDisplay:10.37,2013-01-14 05:28:00,
2013-01-14 00:30:00,56.6,55.8,30.07,West,279,0.0,0.1,97,0.01,CLR,,0.04,WeatherDisplay:10.37,2013-01-14 05:30:00,
2013-01-14 00:31:00,56.7,55.9,30.07,West,279,1.1,0.0,97,0.01,CLR,,0.05,WeatherDisplay:10.37,2013-01-14 05:31:00,
2013-01-14 00:32:00,56.7,55.9,30.07,West,279,1.1,0.0,97,0.01,CLR,,0.05,WeatherDisplay:10.37,2013-01-14 05:32:00,
2013-01-14 00:34:00,56.7,55.9,30.07,WNW,296,2.0,2.0,97,0.01,RA,,0.05,WeatherDisplay:10.37,2013-01-14 05:34:00,
2013-01-14 00:35:00,56.8,56.0,30.07,West,261,3.5,3.5,97,0.01,RA,,0.05,WeatherDisplay:10.37,2013-01-14 05:35:00,
2013-01-14 00:37:00,56.9,56.1,30.07,WNW,296,3.0,3.0,97,0.01,RA,,0.05,WeatherDisplay:10.37,2013-01-14 05:37:00,
2013-01-14 00:39:00,57.0,56.2,30.07,WNW,288,1.1,1.1,97,0.00,RA,,0.05,WeatherDisplay:10.37,2013-01-14 05:39:00,
2013-01-14 00:40:00,57.0,56.2,30.08,WNW,290,3.5,3.5,97,0.12,RA,,0.05,WeatherDisplay:10.37,2013-01-14 05:40:00,
2013-01-14 00:42:00,57.0,56.2,30.08,West,273,1.1,1.1,97,0.09,CLR,,0.05,WeatherDisplay:10.37,2013-01-14 05:42:00,
2013-01-14 00:44:00,57.1,56.3,30.07,WSW,255,2.3,2.3,97,0.10,RA,,0.06,WeatherDisplay:10.37,2013-01-14 05:44:00,
2013-01-14 00:46:00,57.1,56.3,30.07,WNW,295,2.3,2.3,97,0.09,RA,,0.06,WeatherDisplay:10.37,2013-01-14 05:46:00,
2013-01-14 00:47:00,57.1,56.3,30.07,WSW,249,2.3,2.3,97,0.09,RA,,0.06,WeatherDisplay:10.37,2013-01-14 05:47:00,
2013-01-14 00:48:00,57.1,56.3,30.07,WSW,255,3.5,3.5,97,0.09,RA,,0.06,WeatherDisplay:10.37,2013-01-14 05:48:00,
2013-01-14 00:49:00,57.2,56.4,30.07,SW,233,2.3,2.3,97,0.08,RA,,0.06,WeatherDisplay:10.37,2013-01-14 05:49:00,
2013-01-14 00:51:00,57.2,56.4,30.07,SW,234,3.5,3.5,97,0.08,RA,,0.06,WeatherDisplay:10.37,2013-01-14 05:51:00,
2013-01-14 00:52:00,57.2,56.4,30.07,SW,234,0.0,0.0,97,0.08,RA,,0.06,WeatherDisplay:10.37,2013-01-14 05:52:00,
2013-01-14 00:53:00,57.2,56.4,30.07,SW,234,0.0,0.0,97,0.08,RA,,0.06,WeatherDisplay:10.37,2013-01-14 05:53:00,
2013-01-14 00:54:00,57.2,56.4,30.07,SW,234,0.0,0.1,97,0.07,CLR,,0.06,WeatherDisplay:10.37,2013-01-14 05:54:00,
2013-01-14 00:56:00,57.2,56.4,30.07,West,272,1.1,1.1,97,0.07,CLR,,0.06,WeatherDisplay:10.37,2013-01-14 05:56:00,
2013-01-14 00:57:00,57.1,56.3,30.07,West,273,1.1,0.0,97,0.07,CLR,,0.06,WeatherDisplay:10.37,2013-01-14 05:57:00,
2013-01-14 00:58:00,57.2,56.4,30.07,West,273,0.0,0.0,97,0.06,CLR,,0.06,WeatherDisplay:10.37,2013-01-14 05:58:00,
2013-01-14 00:59:00,57.1,56.3,30.07,West,273,1.1,0.0,97,0.06,CLR,,0.06,WeatherDisplay:10.37,2013-01-14 05:59:00,
2013-01-14 01:01:00,57.1,56.3,30.07,West,271,0.0,0.0,97,0.05,CLR,,0.06,WeatherDisplay:10.37,2013-01-14 06:01:00,
2013-01-14 01:02:00,57.1,56.3,30.07,West,272,0.0,0.0,97,0.05,CLR,,0.06,WeatherDisplay:10.37,2013-01-14 06:02:00,
2013-01-14 01:03:00,57.1,56.3,30.07,West,271,1.1,0.0,97,0.05,CLR,,0.06,WeatherDisplay:10.37,2013-01-14 06:03:00,
2013-01-14 01:05:00,57.1,56.3,30.07,WSW,255,1.1,1.1,97,0.05,CLR,,0.06,WeatherDisplay:10.37,2013-01-14 06:05:00,
2013-01-14 01:06:00,57.1,56.3,30.07,WSW,253,3.5,3.5,97,0.04,CLR,,0.06,WeatherDisplay:10.37,2013-01-14 06:06:00,
2013-01-14 01:08:00,57.1,56.3,30.07,WSW,253,1.1,1.1,97,0.04,CLR,,0.06,WeatherDisplay:10.37,2013-01-14 06:08:00,
2013-01-14 01:10:00,57.2,56.4,30.06,WSW,251,2.3,2.3,97,0.03,CLR,,0.06,WeatherDisplay:10.37,2013-01-14 06:10:00,
2013-01-14 01:11:00,57.2,56.4,30.06,WSW,256,2.3,2.3,97,0.03,CLR,,0.06,WeatherDisplay:10.37,2013-01-14 06:11:00,
2013-01-14 01:13:00,57.2,56.4,30.07,WSW,246,4.0,4.0,97,0.03,CLR,,0.06,WeatherDisplay:10.37,2013-01-14 06:13:00,
2013-01-14 01:15:00,57.2,56.4,30.07,WSW,248,3.5,3.5,97,0.02,CLR,,0.06,WeatherDisplay:10.37,2013-01-14 06:15:00,
2013-01-14 01:16:00,57.2,56.4,30.07,WSW,258,3.5,3.5,97,0.02,CLR,,0.06,WeatherDisplay:10.37,2013-01-14 06:16:00,
2013-01-14 01:18:00,57.2,56.4,30.07,WSW,255,3.5,3.5,97,0.02,CLR,,0.06,WeatherDisplay:10.37,2013-01-14 06:18:00,
2013-01-14 01:20:00,57.3,56.5,30.07,West,260,3.5,3.5,97,0.02,CLR,,0.06,WeatherDisplay:10.37,2013-01-14 06:20:00,
2013-01-14 01:21:00,57.3,56.5,30.07,West,261,2.3,2.3,97,0.02,CLR,,0.06,WeatherDisplay:10.37,2013-01-14 06:21:00,
2013-01-14 01:23:00,57.3,56.5,30.07,WSW,253,3.5,3.5,97,0.02,CLR,,0.06,WeatherDisplay:10.37,2013-01-14 06:23:00,
2013-01-14 01:24:00,57.3,56.5,30.07,SW,235,3.5,3.5,97,0.02,CLR,,0.06,WeatherDisplay:10.37,2013-01-14 06:24:00,
2013-01-14 01:25:00,57.3,56.5,30.07,West,265,3.5,3.5,97,0.02,CLR,,0.06,WeatherDisplay:10.37,2013-01-14 06:25:00,
2013-01-14 01:26:00,57.4,56.6,30.07,WSW,251,2.3,2.3,97,0.02,CLR,,0.06,WeatherDisplay:10.37,2013-01-14 06:26:00,
2013-01-14 01:28:00,57.4,56.6,30.07,WSW,255,1.1,1.1,97,0.02,CLR,,0.06,WeatherDisplay:10.37,2013-01-14 06:28:00,
2013-01-14 01:29:00,57.4,56.6,30.07,WSW,258,2.3,2.3,97,0.02,CLR,,0.06,WeatherDisplay:10.37,2013-01-14 06:29:00,
2013-01-14 01:30:00,57.3,56.5,30.07,SW,228,3.5,3.5,97,0.02,CLR,,0.06,WeatherDisplay:10.37,2013-01-14 06:30:00,
2013-01-14 01:32:00,57.4,56.6,30.07,WSW,253,3.5,3.5,97,0.01,CLR,,0.06,WeatherDisplay:10.37,2013-01-14 06:32:00,
2013-01-14 01:33:00,57.4,56.6,30.07,West,260,3.5,3.5,97,0.01,CLR,,0.06,WeatherDisplay:10.37,2013-01-14 06:33:00,
2013-01-14 01:34:00,57.4,56.6,30.07,West,260,5.8,5.8,97,0.01,CLR,,0.06,WeatherDisplay:10.37,2013-01-14 06:34:00,
2013-01-14 01:36:00,57.4,56.6,30.07,SW,236,2.3,2.3,97,0.01,CLR,,0.06,WeatherDisplay:10.37,2013-01-14 06:36:00,
2013-01-14 01:37:00,57.4,56.6,30.07,WSW,258,4.6,4.6,97,0.01,CLR,,0.06,WeatherDisplay:10.37,2013-01-14 06:37:00,
2013-01-14 01:38:00,57.5,56.7,30.07,WSW,251,4.6,4.6,97,0.01,CLR,,0.06,WeatherDisplay:10.37,2013-01-14 06:38:00,
2013-01-14 01:39:00,57.5,56.7,30.07,West,266,3.5,3.5,97,0.01,CLR,,0.06,WeatherDisplay:10.37,2013-01-14 06:39:00,
2013-01-14 01:41:00,57.5,56.7,30.06,WSW,255,2.0,2.0,97,0.01,CLR,,0.06,WeatherDisplay:10.37,2013-01-14 06:41:00,
2013-01-14 01:42:00,57.5,56.7,30.06,West,264,3.5,3.5,97,0.01,CLR,,0.06,WeatherDisplay:10.37,2013-01-14 06:42:00,
2013-01-14 01:44:00,57.5,56.7,30.06,West,262,0.0,0.0,97,0.00,CLR,,0.06,WeatherDisplay:10.37,2013-01-14 06:44:00,
2013-01-14 01:45:00,57.5,56.4,30.06,West,263,1.1,1.1,96,0.00,CLR,,0.06,WeatherDisplay:10.37,2013-01-14 06:45:00,
2013-01-14 01:46:00,57.5,56.4,30.06,West,262,1.1,0.0,96,0.00,CLR,,0.06,WeatherDisplay:10.37,2013-01-14 06:46:00,
2013-01-14 01:47:00,57.5,56.4,30.06,West,262,1.1,0.0,96,0.00,CLR,,0.06,WeatherDisplay:10.37,2013-01-14 06:47:00,
2013-01-14 01:49:00,57.5,56.4,30.06,West,263,0.0,0.0,96,0.00,CLR,,0.06,WeatherDisplay:10.37,2013-01-14 06:49:00,
2013-01-14 01:50:00,57.4,56.3,30.06,West,263,0.0,0.0,96,0.00,CLR,,0.06,WeatherDisplay:10.37,2013-01-14 06:50:00,
2013-01-14 01:51:00,57.4,56.3,30.06,West,262,2.3,2.3,96,0.00,CLR,,0.06,WeatherDisplay:10.37,2013-01-14 06:51:00,
2013-01-14 01:52:00,57.4,56.3,30.06,WSW,238,2.3,2.3,96,0.00,CLR,,0.06,WeatherDisplay:10.37,2013-01-14 06:52:00,
2013-01-14 01:54:00,57.5,56.4,30.06,West,281,2.3,2.3,96,0.00,CLR,,0.06,WeatherDisplay:10.37,2013-01-14 06:54:00,
2013-01-14 01:55:00,57.5,56.4,30.05,West,281,1.1,0.0,96,0.00,CLR,,0.06,WeatherDisplay:10.37,2013-01-14 06:55:00,
2013-01-14 01:56:00,57.5,56.4,30.05,West,281,1.0,1.0,96,0.00,CLR,,0.06,WeatherDisplay:10.37,2013-01-14 06:56:00,
2013-01-14 01:57:00,57.4,56.3,30.05,West,281,1.1,1.1,96,0.00,CLR,,0.06,WeatherDisplay:10.37,2013-01-14 06:57:00,
2013-01-14 02:00:00,57.4,56.3,30.05,SE,135,1.1,1.1,96,0.01,RA,,0.07,WeatherDisplay:10.37,2013-01-14 07:00:00,
2013-01-14 02:01:00,57.4,56.3,30.05,SE,136,2.3,2.3,96,0.01,RA,,0.07,WeatherDisplay:10.37,2013-01-14 07:01:00,
2013-01-14 02:03:00,57.4,56.3,30.05,SE,135,1.1,0.0,96,0.01,RA,,0.07,WeatherDisplay:10.37,2013-01-14 07:03:00,
2013-01-14 02:05:00,57.4,56.3,30.05,East,89,4.0,4.0,96,0.01,RA,,0.07,WeatherDisplay:10.37,2013-01-14 07:05:00,
2013-01-14 02:06:00,57.4,56.3,30.05,East,85,4.0,4.0,96,0.01,RA,,0.07,WeatherDisplay:10.37,2013-01-14 07:06:00,
2013-01-14 02:08:00,57.4,56.3,30.05,ESE,102,3.5,3.5,96,0.01,RA,,0.07,WeatherDisplay:10.37,2013-01-14 07:08:00,
2013-01-14 02:10:00,57.4,56.3,30.04,East,94,3.5,3.5,96,0.01,CLR,,0.07,WeatherDisplay:10.37,2013-01-14 07:10:00,
2013-01-14 02:11:00,57.4,56.3,30.04,ESE,114,3.5,3.5,96,0.01,CLR,,0.07,WeatherDisplay:10.37,2013-01-14 07:11:00,
2013-01-14 02:13:00,57.4,56.6,30.04,ESE,113,2.3,2.3,97,0.01,CLR,,0.07,WeatherDisplay:10.37,2013-01-14 07:13:00,
2013-01-14 02:16:00,57.4,56.3,30.03,ESE,118,5.8,5.8,96,0.01,CLR,,0.08,WeatherDisplay:10.37,2013-01-14 07:16:00,
2013-01-14 02:18:00,57.4,56.6,30.04,SE,140,3.5,3.5,97,0.02,RA,,0.08,WeatherDisplay:10.37,2013-01-14 07:18:00,
2013-01-14 02:21:00,57.4,56.3,30.04,SE,139,2.3,2.3,96,0.02,RA,,0.08,WeatherDisplay:10.37,2013-01-14 07:21:00,
2013-01-14 02:22:00,57.3,56.2,30.04,East,88,2.3,2.3,96,0.02,RA,,0.08,WeatherDisplay:10.37,2013-01-14 07:22:00,
2013-01-14 02:23:00,57.4,56.6,30.04,ESE,106,2.3,2.3,97,0.02,RA,,0.08,WeatherDisplay:10.37,2013-01-14 07:23:00,
2013-01-14 02:26:00,57.4,56.6,30.04,East,100,2.3,2.3,97,0.02,CLR,,0.08,WeatherDisplay:10.37,2013-01-14 07:26:00,
2013-01-14 02:27:00,57.4,56.6,30.04,East,100,1.1,1.1,97,0.02,CLR,,0.08,WeatherDisplay:10.37,2013-01-14 07:27:00,
2013-01-14 02:29:00,57.4,56.6,30.04,East,81,1.1,1.1,97,0.02,CLR,,0.08,WeatherDisplay:10.37,2013-01-14 07:29:00,
2013-01-14 02:31:00,57.4,56.6,30.04,ESE,102,1.1,0.0,97,0.02,CLR,,0.08,WeatherDisplay:10.37,2013-01-14 07:31:00,
2013-01-14 02:32:00,57.4,56.6,30.04,ESE,102,1.0,0.0,97,0.02,CLR,,0.08,WeatherDisplay:10.37,2013-01-14 07:32:00,
2013-01-14 02:34:00,57.2,56.1,30.04,WNW,284,1.1,1.1,96,0.02,CLR,,0.08,WeatherDisplay:10.37,2013-01-14 07:34:00,
2013-01-14 02:37:00,57.2,56.1,30.04,WNW,284,0.0,0.0,96,0.03,RA,,0.09,WeatherDisplay:10.37,2013-01-14 07:37:00,
2013-01-14 02:40:00,57.1,55.9,30.05,WNW,284,0.0,1.0,96,0.00,RA,,0.09,WeatherDisplay:10.37,2013-01-14 07:40:00,
2013-01-14 02:42:00,57.0,55.9,30.04,WNW,283,0.0,0.0,96,0.03,RA,,0.09,WeatherDisplay:10.37,2013-01-14 07:42:00,
2013-01-14 02:45:00,56.8,55.7,30.05,WNW,283,0.0,0.0,96,0.00,CLR,,0.09,WeatherDisplay:10.37,2013-01-14 07:45:00,
2013-01-14 02:47:00,56.8,55.7,30.05,WNW,283,0.0,0.0,96,0.03,CLR,,0.09,WeatherDisplay:10.37,2013-01-14 07:47:00,
2013-01-14 02:48:00,56.8,56.0,30.05,WNW,284,0.0,0.0,97,0.03,CLR,,0.09,WeatherDisplay:10.37,2013-01-14 07:48:00,
2013-01-14 02:50:00,56.7,55.9,30.05,WNW,284,0.0,0.0,97,0.03,CLR,,0.09,WeatherDisplay:10.37,2013-01-14 07:50:00,
2013-01-14 02:52:00,56.7,55.9,30.05,WNW,283,0.0,0.0,97,0.03,CLR,,0.09,WeatherDisplay:10.37,2013-01-14 07:52:00,
2013-01-14 02:53:00,56.7,55.9,30.05,WNW,283,0.0,0.0,97,0.03,CLR,,0.09,WeatherDisplay:10.37,2013-01-14 07:53:00,
2013-01-14 02:55:00,56.7,55.9,30.05,WNW,283,0.0,0.0,97,0.03,CLR,,0.09,WeatherDisplay:10.37,2013-01-14 07:55:00,
2013-01-14 02:57:00,56.6,55.8,30.05,WNW,282,0.0,0.0,97,0.03,CLR,,0.09,WeatherDisplay:10.37,2013-01-14 07:57:00,
2013-01-14 02:58:00,56.6,55.8,30.05,WNW,283,0.0,0.0,97,0.03,CLR,,0.09,WeatherDisplay:10.37,2013-01-14 07:58:00,
2013-01-14 03:00:00,56.6,55.8,30.05,WNW,283,0.0,0.0,97,0.00,CLR,,0.09,WeatherDisplay:10.37,2013-01-14 08:00:00,
2013-01-14 03:02:00,56.5,55.7,30.05,WNW,284,0.0,0.0,97,0.02,CLR,,0.09,WeatherDisplay:10.37,2013-01-14 08:02:00,
2013-01-14 03:03:00,56.5,55.7,30.05,WNW,283,0.0,0.0,97,0.02,CLR,,0.09,WeatherDisplay:10.37,2013-01-14 08:03:00,
2013-01-14 03:05:00,56.5,55.7,30.04,WNW,282,0.0,0.0,97,0.02,CLR,,0.09,WeatherDisplay:10.37,2013-01-14 08:05:00,
2013-01-14 03:07:00,56.4,55.6,30.04,WNW,283,0.0,0.0,97,0.02,CLR,,0.09,WeatherDisplay:10.37,2013-01-14 08:07:00,
2013-01-14 03:08:00,56.4,55.6,30.04,WNW,284,0.0,0.0,97,0.02,CLR,,0.09,WeatherDisplay:10.37,2013-01-14 08:08:00,
2013-01-14 03:11:00,56.3,55.5,30.05,WNW,282,0.0,0.0,97,0.02,CLR,,0.09,WeatherDisplay:10.37,2013-01-14 08:11:00,
2013-01-14 03:13:00,56.2,55.4,30.04,WNW,284,0.0,0.0,97,0.02,CLR,,0.09,WeatherDisplay:10.37,2013-01-14 08:13:00,
2013-01-14 03:14:00,56.2,55.4,30.04,WNW,284,0.0,0.0,97,0.02,CLR,,0.09,WeatherDisplay:10.37,2013-01-14 08:14:00,
2013-01-14 03:16:00,56.1,55.3,30.04,WNW,284,0.0,0.0,97,0.01,CLR,,0.09,WeatherDisplay:10.37,2013-01-14 08:16:00,
2013-01-14 03:18:00,56.1,55.3,30.04,WNW,282,0.0,0.0,97,0.02,RA,,0.10,WeatherDisplay:10.37,2013-01-14 08:18:00,
2013-01-14 03:19:00,56.1,55.3,30.04,WNW,284,0.0,0.0,97,0.02,RA,,0.10,WeatherDisplay:10.37,2013-01-14 08:19:00,
2013-01-14 03:21:00,56.0,55.2,30.04,WNW,284,0.0,0.0,97,0.02,RA,,0.10,WeatherDisplay:10.37,2013-01-14 08:21:00,
2013-01-14 03:23:00,56.0,55.2,30.04,WNW,284,0.0,0.0,97,0.02,RA,,0.10,WeatherDisplay:10.37,2013-01-14 08:23:00,
2013-01-14 03:24:00,56.0,55.2,30.04,WNW,282,0.0,0.0,97,0.02,RA,,0.10,WeatherDisplay:10.37,2013-01-14 08:24:00,
2013-01-14 03:26:00,55.9,55.1,30.04,WNW,282,0.0,0.0,97,0.02,RA,,0.10,WeatherDisplay:10.37,2013-01-14 08:26:00,
2013-01-14 03:28:00,55.9,55.1,30.04,WNW,283,0.0,0.0,97,0.02,CLR,,0.10,WeatherDisplay:10.37,2013-01-14 08:28:00,
2013-01-14 03:29:00,55.9,55.1,30.04,WNW,282,0.0,0.0,97,0.02,CLR,,0.10,WeatherDisplay:10.37,2013-01-14 08:29:00,
2013-01-14 03:32:00,55.8,55.0,30.04,WNW,284,0.0,0.0,97,0.02,CLR,,0.10,WeatherDisplay:10.37,2013-01-14 08:32:00,
2013-01-14 03:33:00,55.8,55.0,30.04,WNW,284,0.0,0.0,97,0.02,CLR,,0.10,WeatherDisplay:10.37,2013-01-14 08:33:00,
2013-01-14 03:34:00,55.8,55.0,30.04,WNW,284,0.0,0.0,97,0.02,CLR,,0.10,WeatherDisplay:10.37,2013-01-14 08:34:00,
2013-01-14 03:38:00,55.7,54.9,30.04,WNW,283,0.0,0.0,97,0.01,CLR,,0.10,WeatherDisplay:10.37,2013-01-14 08:38:00,
2013-01-14 03:39:00,55.7,54.9,30.04,WNW,282,0.0,0.0,97,0.01,CLR,,0.10,WeatherDisplay:10.37,2013-01-14 08:39:00,
2013-01-14 03:43:00,55.7,54.9,30.04,WNW,284,0.0,0.0,97,0.01,CLR,,0.10,WeatherDisplay:10.37,2013-01-14 08:43:00,
2013-01-14 03:44:00,55.7,54.9,30.04,WNW,283,0.0,0.0,97,0.01,CLR,,0.10,WeatherDisplay:10.37,2013-01-14 08:44:00,
2013-01-14 03:45:00,55.7,54.9,30.04,WNW,282,0.0,0.0,97,0.01,CLR,,0.10,WeatherDisplay:10.37,2013-01-14 08:45:00,
2013-01-14 03:46:00,55.6,54.8,30.04,WNW,283,0.0,0.0,97,0.01,CLR,,0.10,WeatherDisplay:10.37,2013-01-14 08:46:00,
2013-01-14 03:48:00,55.6,54.8,30.04,WNW,282,0.0,0.0,97,0.01,CLR,,0.10,WeatherDisplay:10.37,2013-01-14 08:48:00,
2013-01-14 03:49:00,55.6,54.8,30.04,WNW,284,0.0,0.0,97,0.01,CLR,,0.10,WeatherDisplay:10.37,2013-01-14 08:49:00,
2013-01-14 03:50:00,55.5,54.7,30.04,WNW,284,0.0,0.0,97,0.01,CLR,,0.10,WeatherDisplay:10.37,2013-01-14 08:50:00,
2013-01-14 03:51:00,55.5,54.7,30.04,WNW,283,0.0,0.0,97,0.01,CLR,,0.10,WeatherDisplay:10.37,2013-01-14 08:51:00,
2013-01-14 03:53:00,55.5,54.7,30.04,WNW,283,0.0,0.0,97,0.01,CLR,,0.10,WeatherDisplay:10.37,2013-01-14 08:53:00,
2013-01-14 03:54:00,55.5,54.7,30.04,WNW,284,0.0,0.0,97,0.01,CLR,,0.10,WeatherDisplay:10.37,2013-01-14 08:54:00,
2013-01-14 03:55:00,55.5,54.7,30.04,WNW,283,0.0,0.0,97,0.01,CLR,,0.10,WeatherDisplay:10.37,2013-01-14 08:55:00,
2013-01-14 03:56:00,55.5,54.7,30.04,WNW,284,0.0,0.0,97,0.01,CLR,,0.10,WeatherDisplay:10.37,2013-01-14 08:56:00,
2013-01-14 03:59:00,55.4,54.6,30.04,WNW,284,0.0,0.0,97,0.01,CLR,,0.10,WeatherDisplay:10.37,2013-01-14 08:59:00,
2013-01-14 04:00:00,55.4,54.6,30.04,WNW,284,0.0,0.0,97,0.01,CLR,,0.10,WeatherDisplay:10.37,2013-01-14 09:00:00,
2013-01-14 04:02:00,55.4,54.6,30.04,WNW,284,0.0,0.0,97,0.01,CLR,,0.10,WeatherDisplay:10.37,2013-01-14 09:02:00,
2013-01-14 04:04:00,55.4,54.6,30.04,WNW,284,0.0,0.0,97,0.02,RA,,0.11,WeatherDisplay:10.37,2013-01-14 09:04:00,
2013-01-14 04:05:00,55.4,54.6,30.04,WNW,283,0.0,0.0,97,0.02,RA,,0.11,WeatherDisplay:10.37,2013-01-14 09:05:00,
2013-01-14 04:07:00,55.5,54.7,30.04,WNW,284,0.0,0.0,97,0.02,RA,,0.11,WeatherDisplay:10.37,2013-01-14 09:07:00,
2013-01-14 04:09:00,55.4,54.6,30.04,WNW,284,0.0,0.0,97,0.02,RA,,0.11,WeatherDisplay:10.37,2013-01-14 09:09:00,
2013-01-14 04:10:00,55.4,54.6,30.04,WNW,284,0.0,0.0,97,0.02,RA,,0.11,WeatherDisplay:10.37,2013-01-14 09:10:00,
2013-01-14 04:12:00,55.3,54.5,30.04,WNW,282,0.0,0.0,97,0.02,RA,,0.11,WeatherDisplay:10.37,2013-01-14 09:12:00,
2013-01-14 04:14:00,55.3,54.5,30.04,WNW,283,0.0,0.0,97,0.02,CLR,,0.11,WeatherDisplay:10.37,2013-01-14 09:14:00,
2013-01-14 04:15:00,55.3,54.5,30.04,WNW,284,0.0,0.0,97,0.02,CLR,,0.11,WeatherDisplay:10.37,2013-01-14 09:15:00,
2013-01-14 04:16:00,55.3,54.5,30.04,WNW,284,0.0,0.0,97,0.02,CLR,,0.11,WeatherDisplay:10.37,2013-01-14 09:16:00,
2013-01-14 04:17:00,55.4,54.6,30.04,WNW,282,0.0,0.0,97,0.01,CLR,,0.11,WeatherDisplay:10.37,2013-01-14 09:17:00,
2013-01-14 04:19:00,55.3,54.5,30.04,WNW,282,0.0,0.0,97,0.01,CLR,,0.11,WeatherDisplay:10.37,2013-01-14 09:19:00,
2013-01-14 04:20:00,55.3,54.5,30.04,WNW,284,0.0,0.0,97,0.01,CLR,,0.11,WeatherDisplay:10.37,2013-01-14 09:20:00,
2013-01-14 04:21:00,55.3,54.5,30.04,WNW,283,0.0,0.0,97,0.01,CLR,,0.11,WeatherDisplay:10.37,2013-01-14 09:21:00,
2013-01-14 04:22:00,55.3,54.5,30.04,WNW,283,0.0,0.0,97,0.01,CLR,,0.11,WeatherDisplay:10.37,2013-01-14 09:22:00,
2013-01-14 04:25:00,55.2,54.4,30.04,WNW,284,0.0,0.0,97,0.01,CLR,,0.11,WeatherDisplay:10.37,2013-01-14 09:25:00,
2013-01-14 04:26:00,55.2,54.4,30.04,WNW,283,0.0,0.0,97,0.01,CLR,,0.11,WeatherDisplay:10.37,2013-01-14 09:26:00,
2013-01-14 04:28:00,55.2,54.4,30.04,WNW,282,0.0,0.0,97,0.01,CLR,,0.11,WeatherDisplay:10.37,2013-01-14 09:28:00,
2013-01-14 04:30:00,55.2,54.6,30.04,WNW,284,0.0,0.0,98,0.01,CLR,,0.11,WeatherDisplay:10.37,2013-01-14 09:30:00,
2013-01-14 04:31:00,55.2,54.6,30.04,WNW,282,0.0,0.0,98,0.01,CLR,,0.11,WeatherDisplay:10.37,2013-01-14 09:31:00,
2013-01-14 04:33:00,55.2,54.6,30.04,WNW,284,0.0,0.0,98,0.01,CLR,,0.11,WeatherDisplay:10.37,2013-01-14 09:33:00,
2013-01-14 04:35:00,55.1,54.3,30.04,WNW,284,0.0,0.0,97,0.01,CLR,,0.11,WeatherDisplay:10.37,2013-01-14 09:35:00,
2013-01-14 04:36:00,55.1,54.3,30.04,WNW,284,0.0,0.0,97,0.01,CLR,,0.11,WeatherDisplay:10.37,2013-01-14 09:36:00,
2013-01-14 04:37:00,55.1,54.3,30.04,WNW,282,0.0,0.0,97,0.01,CLR,,0.11,WeatherDisplay:10.37,2013-01-14 09:37:00,
2013-01-14 04:38:00,55.1,54.3,30.04,WNW,284,0.0,0.0,97,0.01,CLR,,0.11,WeatherDisplay:10.37,2013-01-14 09:38:00,
2013-01-14 04:40:00,55.1,54.3,30.04,WNW,284,0.0,0.0,97,0.01,CLR,,0.11,WeatherDisplay:10.37,2013-01-14 09:40:00,
2013-01-14 04:41:00,55.1,54.5,30.04,WNW,283,0.0,0.0,98,0.01,CLR,,0.11,WeatherDisplay:10.37,2013-01-14 09:41:00,
2013-01-14 04:42:00,55.1,54.5,30.04,WNW,284,0.0,0.0,98,0.01,CLR,,0.11,WeatherDisplay:10.37,2013-01-14 09:42:00,
2013-01-14 04:43:00,55.1,54.5,30.04,WNW,283,0.0,0.0,98,0.01,CLR,,0.11,WeatherDisplay:10.37,2013-01-14 09:43:00,
2013-01-14 04:45:00,55.1,54.5,30.03,WNW,284,0.0,0.0,98,0.02,RA,,0.12,WeatherDisplay:10.37,2013-01-14 09:45:00,
2013-01-14 04:46:00,55.2,54.6,30.03,WNW,282,0.0,0.0,98,0.02,RA,,0.12,WeatherDisplay:10.37,2013-01-14 09:46:00,
2013-01-14 04:48:00,55.2,54.6,30.04,WNW,282,0.0,0.0,98,0.02,RA,,0.12,WeatherDisplay:10.37,2013-01-14 09:48:00,
2013-01-14 04:51:00,55.1,54.5,30.04,WNW,282,0.0,0.0,98,0.03,RA,,0.13,WeatherDisplay:10.37,2013-01-14 09:51:00,
2013-01-14 04:52:00,55.1,54.5,30.04,WNW,283,0.0,0.0,98,0.03,RA,,0.13,WeatherDisplay:10.37,2013-01-14 09:52:00,
2013-01-14 04:53:00,55.1,54.5,30.04,WNW,283,0.0,0.0,98,0.03,RA,,0.13,WeatherDisplay:10.37,2013-01-14 09:53:00,
2013-01-14 04:56:00,55.2,54.6,30.04,WNW,283,0.0,0.0,98,0.03,RA,,0.13,WeatherDisplay:10.37,2013-01-14 09:56:00,
2013-01-14 04:57:00,55.2,54.6,30.03,WNW,283,0.0,0.0,98,0.03,RA,,0.13,WeatherDisplay:10.37,2013-01-14 09:57:00,
2013-01-14 04:58:00,55.3,54.7,30.03,WNW,283,0.0,0.0,98,0.04,RA,,0.14,WeatherDisplay:10.37,2013-01-14 09:58:00,
2013-01-14 05:01:00,55.3,54.7,30.03,WNW,283,0.0,0.0,98,0.04,RA,,0.14,WeatherDisplay:10.37,2013-01-14 10:01:00,
2013-01-14 05:02:00,55.3,54.7,30.04,WNW,282,0.0,0.0,98,0.04,RA,,0.15,WeatherDisplay:10.37,2013-01-14 10:02:00,
2013-01-14 05:03:00,55.3,54.7,30.04,WNW,283,0.0,0.0,98,0.05,RA,,0.15,WeatherDisplay:10.37,2013-01-14 10:03:00,
2013-01-14 05:04:00,55.3,54.7,30.04,WNW,283,0.0,0.0,98,0.05,RA,,0.15,WeatherDisplay:10.37,2013-01-14 10:04:00,
2013-01-14 05:06:00,55.3,54.7,30.04,WNW,282,0.0,0.0,98,0.05,RA,,0.16,WeatherDisplay:10.37,2013-01-14 10:06:00,
2013-01-14 05:08:00,55.3,54.7,30.04,WNW,283,0.0,0.0,98,0.05,RA,,0.16,WeatherDisplay:10.37,2013-01-14 10:08:00,
2013-01-14 05:09:00,55.3,54.7,30.04,WNW,284,0.0,0.0,98,0.05,RA,,0.16,WeatherDisplay:10.37,2013-01-14 10:09:00,
2013-01-14 05:11:00,55.3,54.7,30.04,WNW,283,0.0,0.0,98,0.06,RA,,0.17,WeatherDisplay:10.37,2013-01-14 10:11:00,
2013-01-14 05:13:00,55.3,54.7,30.04,WNW,284,0.0,0.0,98,0.07,RA,,0.18,WeatherDisplay:10.37,2013-01-14 10:13:00,
2013-01-14 05:14:00,55.3,54.7,30.04,WNW,282,0.0,0.0,98,0.07,RA,,0.18,WeatherDisplay:10.37,2013-01-14 10:14:00,
2013-01-14 05:16:00,55.3,54.7,30.03,WNW,283,0.0,0.0,98,0.07,RA,,0.19,WeatherDisplay:10.37,2013-01-14 10:16:00,
2013-01-14 05:18:00,55.3,54.7,30.04,WNW,283,0.0,0.0,98,0.08,RA,,0.19,WeatherDisplay:10.37,2013-01-14 10:18:00,
2013-01-14 05:19:00,55.3,54.7,30.03,WNW,283,0.0,0.0,98,0.08,RA,,0.19,WeatherDisplay:10.37,2013-01-14 10:19:00,
2013-01-14 05:21:00,55.3,54.7,30.04,WSW,256,1.1,1.1,98,0.08,RA,,0.19,WeatherDisplay:10.37,2013-01-14 10:21:00,
2013-01-14 05:23:00,55.4,54.8,30.04,WSW,253,3.0,3.0,98,0.08,RA,,0.19,WeatherDisplay:10.37,2013-01-14 10:23:00,
2013-01-14 05:24:00,55.4,54.8,30.04,WSW,253,3.5,3.5,98,0.08,RA,,0.20,WeatherDisplay:10.37,2013-01-14 10:24:00,
2013-01-14 05:25:00,55.4,54.8,30.03,WSW,253,3.5,3.5,98,0.09,RA,,0.20,WeatherDisplay:10.37,2013-01-14 10:25:00,
2013-01-14 05:26:00,55.3,54.7,30.04,West,264,2.3,2.3,98,0.09,RA,,0.20,WeatherDisplay:10.37,2013-01-14 10:26:00,
2013-01-14 05:28:00,55.1,54.5,30.04,WSW,253,3.5,3.5,98,0.09,RA,,0.20,WeatherDisplay:10.37,2013-01-14 10:28:00,
2013-01-14 05:29:00,55.1,54.3,30.04,WSW,253,2.3,2.3,97,0.09,RA,,0.20,WeatherDisplay:10.37,2013-01-14 10:29:00,
2013-01-14 05:30:00,55.1,54.3,30.04,WSW,257,2.3,2.3,97,0.09,RA,,0.20,WeatherDisplay:10.37,2013-01-14 10:30:00,
2013-01-14 05:33:00,54.8,54.0,30.04,WSW,258,2.3,2.3,97,0.09,RA,,0.20,WeatherDisplay:10.37,2013-01-14 10:33:00,
2013-01-14 05:34:00,54.7,53.9,30.04,West,271,2.3,2.3,97,0.09,RA,,0.20,WeatherDisplay:10.37,2013-01-14 10:34:00,
2013-01-14 05:35:00,54.6,53.8,30.04,West,268,1.1,1.1,97,0.09,CLR,,0.20,WeatherDisplay:10.37,2013-01-14 10:35:00,
2013-01-14 05:38:00,54.4,53.6,30.04,WSW,241,2.3,2.3,97,0.09,CLR,,0.20,WeatherDisplay:10.37,2013-01-14 10:38:00,
2013-01-14 05:39:00,54.4,53.6,30.05,WSW,250,3.5,3.5,97,0.09,CLR,,0.20,WeatherDisplay:10.37,2013-01-14 10:39:00,
2013-01-14 05:40:00,54.3,53.5,30.05,WNW,283,3.5,3.5,97,0.09,CLR,,0.20,WeatherDisplay:10.37,2013-01-14 10:40:00,
2013-01-14 05:43:00,54.1,53.0,30.05,WSW,244,3.5,3.5,96,0.09,CLR,,0.20,WeatherDisplay:10.37,2013-01-14 10:43:00,
2013-01-14 05:44:00,54.0,52.9,30.06,WSW,257,4.0,4.0,96,0.08,CLR,,0.20,WeatherDisplay:10.37,2013-01-14 10:44:00,
2013-01-14 05:45:00,53.9,52.8,30.06,NW,320,9.2,9.2,96,0.08,CLR,,0.20,WeatherDisplay:10.37,2013-01-14 10:45:00,
2013-01-14 05:48:00,53.9,52.8,30.06,WSW,255,3.5,3.5,96,0.09,RA,,0.21,WeatherDisplay:10.37,2013-01-14 10:48:00,
2013-01-14 05:50:00,53.8,52.7,30.06,NW,316,3.5,3.5,96,0.09,RA,,0.21,WeatherDisplay:10.37,2013-01-14 10:50:00,
2013-01-14 05:51:00,53.8,52.7,30.06,WNW,295,3.5,3.5,96,0.08,RA,,0.21,WeatherDisplay:10.37,2013-01-14 10:51:00,
2013-01-14 05:53:00,53.7,52.6,30.06,WNW,287,2.3,2.3,96,0.09,RA,,0.22,WeatherDisplay:10.37,2013-01-14 10:53:00,
2013-01-14 05:55:00,53.7,52.6,30.06,WNW,299,3.5,3.5,96,0.09,RA,,0.22,WeatherDisplay:10.37,2013-01-14 10:55:00,
2013-01-14 05:56:00,53.6,52.5,30.06,WNW,296,4.0,4.0,96,0.09,RA,,0.22,WeatherDisplay:10.37,2013-01-14 10:56:00,
2013-01-14 05:58:00,53.5,52.4,30.06,WNW,295,3.5,3.5,96,0.08,RA,,0.22,WeatherDisplay:10.37,2013-01-14 10:58:00,
2013-01-14 06:00:00,53.4,52.3,30.06,WNW,295,2.3,2.3,96,0.08,RA,,0.22,WeatherDisplay:10.37,2013-01-14 11:00:00,
2013-01-14 06:01:00,53.4,52.3,30.06,WNW,295,1.1,1.1,96,0.08,RA,,0.22,WeatherDisplay:10.37,2013-01-14 11:01:00,
2013-01-14 06:04:00,53.2,52.1,30.06,NNW,333,3.5,3.5,96,0.08,RA,,0.23,WeatherDisplay:10.37,2013-01-14 11:04:00,
2013-01-14 06:05:00,53.1,52.0,30.06,NNW,344,6.0,6.0,96,0.08,RA,,0.23,WeatherDisplay:10.37,2013-01-14 11:05:00,
2013-01-14 06:06:00,53.0,51.6,30.06,NNW,348,5.8,5.8,95,0.07,RA,,0.23,WeatherDisplay:10.37,2013-01-14 11:06:00,
2013-01-14 06:07:00,52.9,51.5,30.06,WNW,286,4.6,4.6,95,0.07,RA,,0.23,WeatherDisplay:10.37,2013-01-14 11:07:00,
2013-01-14 06:10:00,52.6,51.2,30.06,WNW,296,4.6,4.6,95,0.07,RA,,0.24,WeatherDisplay:10.37,2013-01-14 11:10:00,
2013-01-14 06:11:00,52.5,51.4,30.06,WNW,298,3.0,3.0,96,0.07,RA,,0.24,WeatherDisplay:10.37,2013-01-14 11:11:00,
2013-01-14 06:12:00,52.5,51.4,30.06,WNW,298,3.5,3.5,96,0.07,RA,,0.24,WeatherDisplay:10.37,2013-01-14 11:12:00,
2013-01-14 06:15:00,52.4,51.3,30.07,NW,319,3.5,3.5,96,0.06,RA,,0.24,WeatherDisplay:10.37,2013-01-14 11:15:00,
2013-01-14 06:16:00,52.4,51.3,30.07,NW,323,3.5,3.5,96,0.06,RA,,0.24,WeatherDisplay:10.37,2013-01-14 11:16:00,
2013-01-14 06:17:00,52.2,50.8,30.07,NW,307,6.9,6.9,95,0.05,RA,,0.25,WeatherDisplay:10.37,2013-01-14 11:17:00,
2013-01-14 06:20:00,51.8,50.4,30.07,West,266,3.5,3.5,95,0.06,RA,,0.25,WeatherDisplay:10.37,2013-01-14 11:20:00,
2013-01-14 06:21:00,51.7,50.3,30.07,West,279,1.1,1.1,95,0.06,RA,,0.25,WeatherDisplay:10.37,2013-01-14 11:21:00,
2013-01-14 06:22:00,51.6,50.2,30.06,WNW,287,1.1,1.1,95,0.06,RA,,0.25,WeatherDisplay:10.37,2013-01-14 11:22:00,
2013-01-14 06:25:00,51.3,49.9,30.06,ENE,78,1.1,1.1,95,0.06,RA,,0.26,WeatherDisplay:10.37,2013-01-14 11:25:00,
2013-01-14 06:26:00,51.2,49.8,30.06,ENE,69,3.5,3.5,95,0.06,RA,,0.26,WeatherDisplay:10.37,2013-01-14 11:26:00,
2013-01-14 06:27:00,51.2,49.8,30.06,ENE,70,3.5,3.5,95,0.06,RA,,0.26,WeatherDisplay:10.37,2013-01-14 11:27:00,
2013-01-14 06:28:00,51.1,49.7,30.06,NW,306,3.0,3.0,95,0.06,RA,,0.26,WeatherDisplay:10.37,2013-01-14 11:28:00,
2013-01-14 06:30:00,50.8,49.1,30.07,NW,307,3.5,3.5,94,0.06,RA,,0.26,WeatherDisplay:10.37,2013-01-14 11:30:00,
2013-01-14 06:31:00,50.7,49.0,30.07,NW,314,2.3,2.3,94,0.06,RA,,0.26,WeatherDisplay:10.37,2013-01-14 11:31:00,
2013-01-14 06:32:00,50.6,48.9,30.07,North,352,4.0,4.0,94,0.06,RA,,0.26,WeatherDisplay:10.37,2013-01-14 11:32:00,
2013-01-14 06:33:00,50.5,48.8,30.07,NNW,330,4.6,4.6,94,0.06,RA,,0.26,WeatherDisplay:10.37,2013-01-14 11:33:00,
2013-01-14 06:35:00,50.3,48.6,30.08,West,273,2.3,2.3,94,0.06,CLR,,0.26,WeatherDisplay:10.37,2013-01-14 11:35:00,
2013-01-14 06:37:00,50.2,48.5,30.08,ENE,73,4.0,4.0,94,0.06,CLR,,0.26,WeatherDisplay:10.37,2013-01-14 11:37:00,
2013-01-14 06:38:00,50.1,48.4,30.08,North,358,5.8,5.8,94,0.06,CLR,,0.26,WeatherDisplay:10.37,2013-01-14 11:38:00,
2013-01-14 06:40:00,49.8,47.9,30.08,ENE,60,1.1,1.3,93,0.07,RA,,0.27,WeatherDisplay:10.37,2013-01-14 11:40:00,
2013-01-14 06:42:00,49.7,47.8,30.08,East,100,2.3,2.3,93,0.07,RA,,0.27,WeatherDisplay:10.37,2013-01-14 11:42:00,
2013-01-14 06:43:00,49.6,47.7,30.08,ENE,77,3.5,3.5,93,0.07,RA,,0.27,WeatherDisplay:10.37,2013-01-14 11:43:00,
2013-01-14 06:46:00,49.4,47.5,30.08,East,95,2.3,2.3,93,0.07,RA,,0.27,WeatherDisplay:10.37,2013-01-14 11:46:00,
2013-01-14 06:47:00,49.3,47.4,30.08,SE,132,2.3,2.3,93,0.07,RA,,0.27,WeatherDisplay:10.37,2013-01-14 11:47:00,
2013-01-14 06:48:00,49.2,47.3,30.08,SE,130,1.1,1.1,93,0.06,RA,,0.27,WeatherDisplay:10.37,2013-01-14 11:48:00,
2013-01-14 06:51:00,49.1,47.2,30.08,West,267,1.1,1.1,93,0.06,CLR,,0.27,WeatherDisplay:10.37,2013-01-14 11:51:00,
2013-01-14 06:52:00,49.1,47.2,30.07,WSW,255,1.1,1.1,93,0.06,CLR,,0.27,WeatherDisplay:10.37,2013-01-14 11:52:00,
2013-01-14 06:53:00,49.0,47.1,30.07,ESE,115,2.3,2.3,93,0.05,CLR,,0.27,WeatherDisplay:10.37,2013-01-14 11:53:00,
2013-01-14 06:56:00,48.8,46.9,30.08,East,82,3.5,3.5,93,0.05,CLR,,0.27,WeatherDisplay:10.37,2013-01-14 11:56:00,
2013-01-14 06:58:00,48.7,46.8,30.08,East,82,1.1,1.1,93,0.05,CLR,,0.27,WeatherDisplay:10.37,2013-01-14 11:58:00,
2013-01-14 07:02:00,48.6,46.7,30.08,WSW,237,1.1,1.1,93,0.05,CLR,,0.27,WeatherDisplay:10.37,2013-01-14 12:02:00,
2013-01-14 07:03:00,48.5,46.6,30.08,WSW,238,1.1,0.0,93,0.05,CLR,,0.27,WeatherDisplay:10.37,2013-01-14 12:03:00,
2013-01-14 07:07:00,48.4,46.5,30.08,South,179,2.3,0.0,93,0.04,CLR,,0.27,WeatherDisplay:10.37,2013-01-14 12:07:00,
2013-01-14 07:08:00,48.4,46.5,30.09,South,180,0.0,0.0,93,0.04,CLR,,0.27,WeatherDisplay:10.37,2013-01-14 12:08:00,
2013-01-14 07:12:00,48.3,46.4,30.09,South,180,1.0,0.0,93,0.03,CLR,,0.27,WeatherDisplay:10.37,2013-01-14 12:12:00,
2013-01-14 07:13:00,48.3,46.4,30.08,South,180,1.1,1.1,93,0.03,CLR,,0.27,WeatherDisplay:10.37,2013-01-14 12:13:00,
2013-01-14 07:14:00,48.3,46.4,30.09,South,180,0.0,0.0,93,0.03,CLR,,0.27,WeatherDisplay:10.37,2013-01-14 12:14:00,
2013-01-14 07:17:00,48.3,46.4,30.09,South,180,0.0,0.1,93,0.03,CLR,,0.27,WeatherDisplay:10.37,2013-01-14 12:17:00,
2013-01-14 07:18:00,48.3,46.4,30.09,South,180,1.1,0.0,93,0.02,CLR,,0.27,WeatherDisplay:10.37,2013-01-14 12:18:00,
2013-01-14 07:19:00,48.3,46.4,30.09,South,180,1.1,1.1,93,0.02,CLR,,0.27,WeatherDisplay:10.37,2013-01-14 12:19:00,
2013-01-14 07:20:00,48.3,46.4,30.09,South,180,1.1,0.0,93,0.02,CLR,,0.27,WeatherDisplay:10.37,2013-01-14 12:20:00,
2013-01-14 07:22:00,48.2,46.0,30.09,NNE,32,2.3,2.3,92,0.02,CLR,,0.27,WeatherDisplay:10.37,2013-01-14 12:22:00,
2013-01-14 07:23:00,48.2,46.0,30.09,NNE,32,2.3,2.3,92,0.02,CLR,,0.27,WeatherDisplay:10.37,2013-01-14 12:23:00,
2013-01-14 07:24:00,48.2,46.0,30.09,NNE,32,0.0,0.0,92,0.02,CLR,,0.27,WeatherDisplay:10.37,2013-01-14 12:24:00,
2013-01-14 07:26:00,48.1,46.2,30.09,WNW,293,0.0,0.0,93,0.01,CLR,,0.27,WeatherDisplay:10.37,2013-01-14 12:26:00,
2013-01-14 07:28:00,48.1,45.9,30.10,WNW,293,1.1,1.1,92,0.01,CLR,,0.27,WeatherDisplay:10.37,2013-01-14 12:28:00,
2013-01-14 07:29:00,48.1,45.9,30.10,WNW,293,1.1,0.0,92,0.01,CLR,,0.27,WeatherDisplay:10.37,2013-01-14 12:29:00,
2013-01-14 07:31:00,48.1,45.9,30.10,NW,309,2.0,2.0,92,0.01,CLR,,0.27,WeatherDisplay:10.37,2013-01-14 12:31:00,
2013-01-14 07:33:00,48.0,45.8,30.10,NNE,26,3.5,3.5,92,0.01,CLR,,0.27,WeatherDisplay:10.37,2013-01-14 12:33:00,
2013-01-14 07:34:00,48.1,45.9,30.10,SE,124,3.5,3.5,92,0.01,CLR,,0.27,WeatherDisplay:10.37,2013-01-14 12:34:00,
2013-01-14 07:36:00,48.0,45.8,30.10,SE,125,2.0,2.0,92,0.01,CLR,,0.27,WeatherDisplay:10.37,2013-01-14 12:36:00,
2013-01-14 07:38:00,48.0,45.8,30.10,NW,316,2.3,2.3,92,0.01,CLR,,0.27,WeatherDisplay:10.37,2013-01-14 12:38:00,
2013-01-14 07:39:00,47.9,45.7,30.10,WNW,303,3.5,3.5,92,0.00,CLR,,0.27,WeatherDisplay:10.37,2013-01-14 12:39:00,
2013-01-14 07:40:00,47.9,45.7,30.10,NW,309,3.5,3.5,92,0.00,CLR,,0.27,WeatherDisplay:10.37,2013-01-14 12:40:00,
2013-01-14 07:41:00,47.9,45.7,30.11,WNW,297,1.1,1.1,92,0.00,CLR,,0.27,WeatherDisplay:10.37,2013-01-14 12:41:00,
2013-01-14 07:43:00,47.9,45.7,30.11,WNW,297,2.3,2.3,92,0.00,CLR,,0.27,WeatherDisplay:10.37,2013-01-14 12:43:00,
2013-01-14 07:44:00,47.9,45.7,30.11,WNW,296,1.1,0.0,92,0.00,CLR,,0.27,WeatherDisplay:10.37,2013-01-14 12:44:00,
2013-01-14 07:45:00,47.8,45.6,30.11,WNW,297,0.0,0.0,92,0.00,CLR,,0.27,WeatherDisplay:10.37,2013-01-14 12:45:00,
2013-01-14 07:46:00,47.8,45.9,30.11,NW,317,2.0,2.0,93,0.00,CLR,,0.27,WeatherDisplay:10.37,2013-01-14 12:46:00,
2013-01-14 07:48:00,47.7,45.8,30.11,ESE,108,2.3,2.3,93,0.00,CLR,,0.27,WeatherDisplay:10.37,2013-01-14 12:48:00,
2013-01-14 07:50:00,47.7,45.8,30.11,NNW,340,3.5,3.5,93,0.00,CLR,,0.27,WeatherDisplay:10.37,2013-01-14 12:50:00,
2013-01-14 07:51:00,47.6,45.7,30.11,NNW,340,0.0,0.0,93,0.00,CLR,,0.27,WeatherDisplay:10.37,2013-01-14 12:51:00,
2013-01-14 07:53:00,47.6,45.7,30.11,NNW,340,0.0,0.0,93,0.00,CLR,,0.27,WeatherDisplay:10.37,2013-01-14 12:53:00,
2013-01-14 07:55:00,47.5,45.6,30.12,NNW,340,0.0,0.0,93,0.00,CLR,,0.27,WeatherDisplay:10.37,2013-01-14 12:55:00,
2013-01-14 07:56:00,47.5,45.6,30.12,NW,324,0.0,0.1,93,0.00,CLR,,0.27,WeatherDisplay:10.37,2013-01-14 12:56:00,
2013-01-14 07:57:00,47.4,45.5,30.12,NW,324,1.1,0.0,93,0.00,CLR,,0.27,WeatherDisplay:10.37,2013-01-14 12:57:00,
2013-01-14 07:58:00,47.4,45.5,30.12,North,11,2.3,2.3,93,0.00,CLR,,0.27,WeatherDisplay:10.37,2013-01-14 12:58:00,
2013-01-14 08:00:00,47.3,45.4,30.12,NW,323,3.5,3.5,93,0.00,CLR,,0.27,WeatherDisplay:10.37,2013-01-14 13:00:00,
2013-01-14 08:01:00,47.2,45.6,30.12,NW,324,3.5,3.5,94,0.00,CLR,,0.27,WeatherDisplay:10.37,2013-01-14 13:01:00,
2013-01-14 08:02:00,47.2,45.6,30.13,NW,324,0.0,0.0,94,0.00,CLR,,0.27,WeatherDisplay:10.37,2013-01-14 13:02:00,
2013-01-14 08:04:00,47.2,45.6,30.13,NW,324,1.1,0.0,94,0.00,CLR,,0.27,WeatherDisplay:10.37,2013-01-14 13:04:00,
2013-01-14 08:05:00,47.1,45.5,30.13,NW,324,0.0,0.0,94,0.01,RA,,0.28,WeatherDisplay:10.37,2013-01-14 13:05:00,
2013-01-14 08:06:00,47.1,45.5,30.13,NW,324,0.0,0.0,94,0.01,RA,,0.28,WeatherDisplay:10.37,2013-01-14 13:06:00,
2013-01-14 08:07:00,47.1,45.5,30.13,NW,324,1.1,0.0,94,0.01,RA,,0.28,WeatherDisplay:10.37,2013-01-14 13:07:00,
2013-01-14 08:09:00,47.1,45.7,30.13,NW,323,1.1,0.0,95,0.01,RA,,0.28,WeatherDisplay:10.37,2013-01-14 13:09:00,
2013-01-14 08:10:00,47.1,45.7,30.12,NW,323,0.0,0.0,95,0.01,RA,,0.28,WeatherDisplay:10.37,2013-01-14 13:10:00,
2013-01-14 08:11:00,47.1,45.7,30.12,ESE,106,1.1,1.3,95,0.01,RA,,0.28,WeatherDisplay:10.37,2013-01-14 13:11:00,
2013-01-14 08:12:00,47.1,45.7,30.12,SE,130,4.0,4.0,95,0.01,RA,,0.28,WeatherDisplay:10.37,2013-01-14 13:12:00,
2013-01-14 08:14:00,47.0,45.6,30.10,East,91,5.8,5.8,95,0.02,RA,,0.29,WeatherDisplay:10.37,2013-01-14 13:14:00,
2013-01-14 08:15:00,46.9,45.5,30.11,East,99,4.6,4.6,95,0.02,RA,,0.29,WeatherDisplay:10.37,2013-01-14 13:15:00,
2013-01-14 08:17:00,46.9,45.5,30.11,SE,129,3.5,3.5,95,0.03,RA,,0.30,WeatherDisplay:10.37,2013-01-14 13:17:00,
2013-01-14 08:19:00,46.9,45.5,30.12,SE,144,2.3,2.3,95,0.03,RA,,0.30,WeatherDisplay:10.37,2013-01-14 13:19:00,
2013-01-14 08:20:00,46.8,45.4,30.12,SE,144,1.1,0.0,95,0.03,RA,,0.30,WeatherDisplay:10.37,2013-01-14 13:20:00,
2013-01-14 08:22:00,46.9,45.5,30.12,NW,307,3.5,3.5,95,0.03,RA,,0.30,WeatherDisplay:10.37,2013-01-14 13:22:00,
2013-01-14 08:23:00,46.9,45.5,30.12,NW,305,3.5,3.5,95,0.03,RA,,0.30,WeatherDisplay:10.37,2013-01-14 13:23:00,
2013-01-14 08:24:00,46.9,45.5,30.14,NW,304,2.3,0.0,95,0.03,RA,,0.30,WeatherDisplay:10.37,2013-01-14 13:24:00,
2013-01-14 08:26:00,46.9,45.5,30.14,WNW,284,1.1,1.1,95,0.03,RA,,0.30,WeatherDisplay:10.37,2013-01-14 13:26:00,
2013-01-14 08:27:00,46.9,45.5,30.14,WNW,284,0.0,0.0,95,0.03,CLR,,0.30,WeatherDisplay:10.37,2013-01-14 13:27:00,
2013-01-14 08:28:00,46.9,45.5,30.14,WSW,258,0.0,0.2,95,0.03,CLR,,0.30,WeatherDisplay:10.37,2013-01-14 13:28:00,
2013-01-14 08:29:00,46.9,45.5,30.14,West,259,1.1,1.1,95,0.03,CLR,,0.30,WeatherDisplay:10.37,2013-01-14 13:29:00,
2013-01-14 08:31:00,46.8,45.4,30.14,WNW,300,2.3,2.3,95,0.03,CLR,,0.30,WeatherDisplay:10.37,2013-01-14 13:31:00,
2013-01-14 08:32:00,46.8,45.4,30.14,WNW,294,2.3,2.3,95,0.03,CLR,,0.30,WeatherDisplay:10.37,2013-01-14 13:32:00,
2013-01-14 08:33:00,46.8,45.4,30.14,WNW,300,3.0,3.0,95,0.03,CLR,,0.30,WeatherDisplay:10.37,2013-01-14 13:33:00,
2013-01-14 08:35:00,46.7,45.3,30.15,NW,309,3.5,3.5,95,0.03,CLR,,0.30,WeatherDisplay:10.37,2013-01-14 13:35:00,
2013-01-14 08:36:00,46.7,45.3,30.15,NW,305,2.0,2.0,95,0.03,CLR,,0.30,WeatherDisplay:10.37,2013-01-14 13:36:00,
2013-01-14 08:38:00,46.7,45.3,30.15,NW,311,1.1,1.1,95,0.03,CLR,,0.30,WeatherDisplay:10.37,2013-01-14 13:38:00,
2013-01-14 08:40:00,46.6,45.2,30.14,NW,324,1.0,1.0,95,0.03,CLR,,0.30,WeatherDisplay:10.37,2013-01-14 13:40:00,
2013-01-14 08:42:00,46.6,45.2,30.14,NNW,340,1.0,1.0,95,0.03,CLR,,0.30,WeatherDisplay:10.37,2013-01-14 13:42:00,
2013-01-14 08:43:00,46.6,45.2,30.14,NNW,340,2.3,2.3,95,0.03,CLR,,0.30,WeatherDisplay:10.37,2013-01-14 13:43:00,
2013-01-14 08:44:00,46.6,45.2,30.14,NNW,340,0.0,0.0,95,0.03,CLR,,0.30,WeatherDisplay:10.37,2013-01-14 13:44:00,
2013-01-14 08:45:00,46.6,45.2,30.14,NNW,340,0.0,0.0,95,0.03,CLR,,0.30,WeatherDisplay:10.37,2013-01-14 13:45:00,
2013-01-14 08:47:00,46.6,45.2,30.14,NNW,340,0.0,0.0,95,0.03,CLR,,0.30,WeatherDisplay:10.37,2013-01-14 13:47:00,
2013-01-14 08:48:00,46.6,45.2,30.14,NNW,340,1.0,0.0,95,0.03,CLR,,0.30,WeatherDisplay:10.37,2013-01-14 13:48:00,
2013-01-14 08:49:00,46.6,45.2,30.14,NNW,340,1.1,1.1,95,0.03,CLR,,0.30,WeatherDisplay:10.37,2013-01-14 13:49:00,
2013-01-14 08:50:00,46.6,45.2,30.14,NNW,340,0.0,0.0,95,0.03,CLR,,0.30,WeatherDisplay:10.37,2013-01-14 13:50:00,
2013-01-14 08:52:00,46.6,45.2,30.14,NNW,340,0.0,0.0,95,0.03,CLR,,0.30,WeatherDisplay:10.37,2013-01-14 13:52:00,
2013-01-14 08:54:00,46.6,45.2,30.14,NNW,340,0.0,0.0,95,0.03,CLR,,0.30,WeatherDisplay:10.37,2013-01-14 13:54:00,
2013-01-14 08:55:00,46.6,45.2,30.14,NNW,340,0.0,0.0,95,0.03,CLR,,0.30,WeatherDisplay:10.37,2013-01-14 13:55:00,
2013-01-14 08:57:00,46.6,45.2,30.14,NNW,340,0.0,0.0,95,0.03,CLR,,0.30,WeatherDisplay:10.37,2013-01-14 13:57:00,
2013-01-14 08:59:00,46.7,45.6,30.14,East,84,2.3,2.3,96,0.03,CLR,,0.30,WeatherDisplay:10.37,2013-01-14 13:59:00,
2013-01-14 09:00:00,46.7,45.6,30.14,East,89,3.5,3.5,96,0.03,CLR,,0.30,WeatherDisplay:10.37,2013-01-14 14:00:00,
2013-01-14 09:03:00,46.8,45.7,30.13,East,96,4.0,4.0,96,0.03,CLR,,0.30,WeatherDisplay:10.37,2013-01-14 14:03:00,
2013-01-14 09:04:00,46.8,45.7,30.13,SE,129,3.5,3.5,96,0.03,CLR,,0.30,WeatherDisplay:10.37,2013-01-14 14:04:00,
2013-01-14 09:05:00,46.8,45.4,30.13,East,91,3.5,3.5,95,0.02,CLR,,0.30,WeatherDisplay:10.37,2013-01-14 14:05:00,
2013-01-14 09:08:00,46.8,45.4,30.14,East,82,5.0,5.0,95,0.02,CLR,,0.30,WeatherDisplay:10.37,2013-01-14 14:08:00,
2013-01-14 09:09:00,46.8,45.4,30.14,SE,131,4.6,4.6,95,0.02,CLR,,0.30,WeatherDisplay:10.37,2013-01-14 14:09:00,
2013-01-14 09:10:00,46.8,45.4,30.14,East,89,2.3,2.3,95,0.02,CLR,,0.30,WeatherDisplay:10.37,2013-01-14 14:10:00,
2013-01-14 09:13:00,46.8,45.4,30.14,East,94,2.3,2.3,95,0.02,CLR,,0.30,WeatherDisplay:10.37,2013-01-14 14:13:00,
2013-01-14 09:14:00,46.8,45.4,30.14,East,101,3.5,3.5,95,0.01,CLR,,0.30,WeatherDisplay:10.37,2013-01-14 14:14:00,
2013-01-14 09:15:00,46.8,45.4,30.14,ESE,104,4.6,4.6,95,0.01,CLR,,0.30,WeatherDisplay:10.37,2013-01-14 14:15:00,
2013-01-14 09:16:00,46.8,45.4,30.14,ESE,122,3.5,3.5,95,0.01,CLR,,0.30,WeatherDisplay:10.37,2013-01-14 14:16:00,
2013-01-14 09:18:00,46.8,45.4,30.14,ENE,75,3.5,3.5,95,0.00,CLR,,0.30,WeatherDisplay:10.37,2013-01-14 14:18:00,
2013-01-14 09:19:00,46.9,45.5,30.14,East,81,3.5,3.5,95,0.00,CLR,,0.30,WeatherDisplay:10.37,2013-01-14 14:19:00,
2013-01-14 09:20:00,46.9,45.5,30.14,East,81,3.5,3.5,95,0.00,CLR,,0.30,WeatherDisplay:10.37,2013-01-14 14:20:00,
2013-01-14 09:21:00,46.8,45.4,30.14,East,82,4.6,4.6,95,0.00,CLR,,0.30,WeatherDisplay:10.37,2013-01-14 14:21:00,
2013-01-14 09:23:00,46.8,45.2,30.14,East,91,4.6,4.6,94,0.00,CLR,,0.30,WeatherDisplay:10.37,2013-01-14 14:23:00,
2013-01-14 09:25:00,46.8,45.2,30.14,East,91,3.0,5.0,94,0.00,CLR,,0.30,WeatherDisplay:10.37,2013-01-14 14:25:00,
2013-01-14 09:26:00,46.8,45.2,30.14,East,91,4.6,4.6,94,0.00,CLR,,0.30,WeatherDisplay:10.37,2013-01-14 14:26:00,
2013-01-14 09:28:00,46.8,45.2,30.14,ESE,110,4.6,4.6,94,0.00,CLR,,0.30,WeatherDisplay:10.37,2013-01-14 14:28:00,
2013-01-14 09:30:00,46.8,45.2,30.14,East,91,2.0,5.0,94,0.00,CLR,,0.30,WeatherDisplay:10.37,2013-01-14 14:30:00,
2013-01-14 09:31:00,46.8,45.2,30.14,ENE,73,3.5,3.5,94,0.00,CLR,,0.30,WeatherDisplay:10.37,2013-01-14 14:31:00,
2013-01-14 09:34:00,46.9,45.3,30.15,East,81,2.3,2.3,94,0.00,CLR,,0.30,WeatherDisplay:10.37,2013-01-14 14:34:00,
2013-01-14 09:35:00,46.9,45.3,30.15,East,89,1.0,4.0,94,0.00,CLR,,0.30,WeatherDisplay:10.37,2013-01-14 14:35:00,
2013-01-14 09:36:00,47.0,45.4,30.15,ENE,74,2.3,2.3,94,0.00,CLR,,0.30,WeatherDisplay:10.37,2013-01-14 14:36:00,
2013-01-14 09:39:00,47.0,45.4,30.15,North,354,1.1,1.1,94,0.00,CLR,,0.30,WeatherDisplay:10.37,2013-01-14 14:39:00,
2013-01-14 09:40:00,47.0,45.4,30.15,North,354,1.1,1.1,94,0.00,CLR,,0.30,WeatherDisplay:10.37,2013-01-14 14:40:00,
2013-01-14 09:41:00,47.0,45.4,30.15,NNW,347,0.0,0.0,94,0.00,CLR,,0.30,WeatherDisplay:10.37,2013-01-14 14:41:00,
2013-01-14 09:42:00,47.0,45.4,30.15,NNW,347,0.0,0.0,94,0.00,CLR,,0.30,WeatherDisplay:10.37,2013-01-14 14:42:00,
2013-01-14 09:44:00,47.1,45.5,30.15,NNW,347,0.0,0.0,94,0.00,CLR,,0.30,WeatherDisplay:10.37,2013-01-14 14:44:00,
2013-01-14 09:45:00,47.1,45.5,30.15,North,352,1.0,1.0,94,0.00,CLR,,0.30,WeatherDisplay:10.37,2013-01-14 14:45:00,
2013-01-14 09:46:00,47.1,45.5,30.15,ENE,58,3.0,3.0,94,0.00,CLR,,0.30,WeatherDisplay:10.37,2013-01-14 14:46:00,
2013-01-14 09:47:00,47.1,45.5,30.15,ENE,57,3.5,3.5,94,0.00,CLR,,0.30,WeatherDisplay:10.37,2013-01-14 14:47:00,
2013-01-14 09:49:00,47.1,45.2,30.15,NE,47,2.3,2.3,93,0.00,CLR,,0.30,WeatherDisplay:10.37,2013-01-14 14:49:00,
2013-01-14 09:50:00,47.1,45.2,30.15,NE,47,1.1,1.1,93,0.00,CLR,,0.30,WeatherDisplay:10.37,2013-01-14 14:50:00,
2013-01-14 09:51:00,47.1,45.2,30.15,NE,47,0.0,0.0,93,0.00,CLR,,0.30,WeatherDisplay:10.37,2013-01-14 14:51:00,
2013-01-14 09:52:00,47.2,45.6,30.15,NE,47,0.0,0.2,94,0.00,CLR,,0.30,WeatherDisplay:10.37,2013-01-14 14:52:00,
2013-01-14 09:54:00,47.1,45.2,30.15,East,88,2.3,2.3,93,0.00,CLR,,0.30,WeatherDisplay:10.37,2013-01-14 14:54:00,
2013-01-14 09:55:00,47.1,45.2,30.15,East,88,2.3,2.3,93,0.00,CLR,,0.30,WeatherDisplay:10.37,2013-01-14 14:55:00,
2013-01-14 09:57:00,47.1,45.2,30.15,ESE,118,3.5,3.5,93,0.00,CLR,,0.30,WeatherDisplay:10.37,2013-01-14 14:57:00,
2013-01-14 09:59:00,47.0,45.1,30.15,East,81,2.3,2.3,93,0.00,CLR,,0.30,WeatherDisplay:10.37,2013-01-14 14:59:00,
2013-01-14 10:00:00,47.1,45.2,30.15,ENE,70,1.1,1.1,93,0.00,CLR,,0.30,WeatherDisplay:10.37,2013-01-14 15:00:00,
2013-01-14 10:02:00,47.0,45.1,30.15,ENE,70,2.3,2.3,93,0.00,CLR,,0.30,WeatherDisplay:10.37,2013-01-14 15:02:00,
2013-01-14 10:04:00,47.1,45.5,30.15,SE,141,1.1,1.1,94,0.00,CLR,,0.30,WeatherDisplay:10.37,2013-01-14 15:04:00,
2013-01-14 10:05:00,47.1,45.5,30.15,SE,141,1.1,0.0,94,0.00,CLR,,0.30,WeatherDisplay:10.37,2013-01-14 15:05:00,
2013-01-14 10:07:00,47.1,45.5,30.15,SE,141,1.1,1.1,94,0.01,RA,,0.31,WeatherDisplay:10.37,2013-01-14 15:07:00,
2013-01-14 10:10:00,47.1,45.5,30.15,East,98,3.5,3.5,94,0.01,RA,,0.31,WeatherDisplay:10.37,2013-01-14 15:10:00,
2013-01-14 10:12:00,47.0,45.1,30.16,East,84,0.0,0.0,93,0.01,RA,,0.31,WeatherDisplay:10.37,2013-01-14 15:12:00,
2013-01-14 10:15:00,46.9,45.0,30.15,East,89,4.6,4.6,93,0.01,RA,,0.31,WeatherDisplay:10.37,2013-01-14 15:15:00,
2013-01-14 10:16:00,46.9,45.0,30.14,East,94,3.5,3.5,93,0.01,RA,,0.31,WeatherDisplay:10.37,2013-01-14 15:16:00,
2013-01-14 10:17:00,46.9,45.0,30.14,ENE,78,3.5,3.5,93,0.01,CLR,,0.31,WeatherDisplay:10.37,2013-01-14 15:17:00,
2013-01-14 10:18:00,46.9,45.0,30.14,East,87,3.5,3.5,93,0.01,CLR,,0.31,WeatherDisplay:10.37,2013-01-14 15:18:00,
2013-01-14 10:21:00,46.9,45.0,30.15,ESE,103,3.5,3.5,93,0.01,CLR,,0.31,WeatherDisplay:10.37,2013-01-14 15:21:00,
2013-01-14 10:23:00,47.0,45.4,30.16,ESE,103,2.3,0.0,94,0.01,CLR,,0.31,WeatherDisplay:10.37,2013-01-14 15:23:00,
2013-01-14 10:26:00,47.1,45.5,30.17,East,101,1.1,1.1,94,0.01,CLR,,0.31,WeatherDisplay:10.37,2013-01-14 15:26:00,
2013-01-14 10:28:00,47.1,45.2,30.17,NW,308,4.6,4.6,93,0.01,CLR,,0.31,WeatherDisplay:10.37,2013-01-14 15:28:00,
2013-01-14 10:29:00,47.1,45.2,30.17,NW,310,4.6,4.6,93,0.01,CLR,,0.31,WeatherDisplay:10.37,2013-01-14 15:29:00,
2013-01-14 10:31:00,47.0,45.4,30.17,WNW,297,2.3,2.3,94,0.01,CLR,,0.31,WeatherDisplay:10.37,2013-01-14 15:31:00,
2013-01-14 10:32:00,47.0,45.4,30.17,WNW,295,2.3,2.3,94,0.01,CLR,,0.31,WeatherDisplay:10.37,2013-01-14 15:32:00,
2013-01-14 10:33:00,47.0,45.1,30.17,WNW,295,0.0,0.1,93,0.01,CLR,,0.31,WeatherDisplay:10.37,2013-01-14 15:33:00,
2013-01-14 10:34:00,47.0,45.4,30.17,WNW,295,1.1,0.0,94,0.01,CLR,,0.31,WeatherDisplay:10.37,2013-01-14 15:34:00,
2013-01-14 10:36:00,47.0,45.4,30.15,SE,139,1.1,1.1,94,0.01,CLR,,0.31,WeatherDisplay:10.37,2013-01-14 15:36:00,
2013-01-14 10:37:00,47.0,45.4,30.15,SE,139,1.1,1.1,94,0.01,CLR,,0.31,WeatherDisplay:10.37,2013-01-14 15:37:00,
2013-01-14 10:38:00,47.1,45.5,30.15,SE,139,1.1,1.1,94,0.01,CLR,,0.31,WeatherDisplay:10.37,2013-01-14 15:38:00,
2013-01-14 10:39:00,47.1,45.5,30.15,SE,139,0.0,0.0,94,0.01,CLR,,0.31,WeatherDisplay:10.37,2013-01-14 15:39:00,
2013-01-14 10:41:00,47.1,45.5,30.16,WSW,249,0.0,0.0,94,0.01,CLR,,0.31,WeatherDisplay:10.37,2013-01-14 15:41:00,
2013-01-14 10:42:00,47.1,45.5,30.16,West,272,1.1,1.1,94,0.01,CLR,,0.31,WeatherDisplay:10.37,2013-01-14 15:42:00,
2013-01-14 10:43:00,47.0,45.1,30.16,West,271,1.1,0.0,93,0.01,CLR,,0.31,WeatherDisplay:10.37,2013-01-14 15:43:00,
2013-01-14 10:44:00,47.0,45.1,30.16,West,271,0.0,0.0,93,0.01,CLR,,0.31,WeatherDisplay:10.37,2013-01-14 15:44:00,
2013-01-14 10:46:00,47.0,45.1,30.16,West,271,0.0,0.0,93,0.01,CLR,,0.31,WeatherDisplay:10.37,2013-01-14 15:46:00,
2013-01-14 10:47:00,47.1,45.5,30.16,WNW,298,4.0,4.0,94,0.01,CLR,,0.31,WeatherDisplay:10.37,2013-01-14 15:47:00,
2013-01-14 10:49:00,47.0,45.1,30.16,NW,326,3.5,3.5,93,0.01,CLR,,0.31,WeatherDisplay:10.37,2013-01-14 15:49:00,
2013-01-14 10:51:00,46.9,45.0,30.16,WNW,302,3.5,3.5,93,0.01,CLR,,0.31,WeatherDisplay:10.37,2013-01-14 15:51:00,
2013-01-14 10:53:00,46.9,45.0,30.17,WNW,300,2.3,2.3,93,0.01,CLR,,0.31,WeatherDisplay:10.37,2013-01-14 15:53:00,
2013-01-14 10:54:00,46.9,45.0,30.17,WNW,288,3.5,3.5,93,0.01,CLR,,0.31,WeatherDisplay:10.37,2013-01-14 15:54:00,
2013-01-14 10:55:00,46.9,45.0,30.17,WNW,288,3.5,3.5,93,0.01,CLR,,0.31,WeatherDisplay:10.37,2013-01-14 15:55:00,
2013-01-14 10:56:00,46.9,45.0,30.17,WNW,290,1.1,1.1,93,0.01,CLR,,0.31,WeatherDisplay:10.37,2013-01-14 15:56:00,
2013-01-14 10:58:00,46.9,45.0,30.17,WNW,289,0.0,0.0,93,0.01,CLR,,0.31,WeatherDisplay:10.37,2013-01-14 15:58:00,
2013-01-14 10:59:00,46.9,45.0,30.17,WNW,290,1.1,1.1,93,0.01,CLR,,0.31,WeatherDisplay:10.37,2013-01-14 15:59:00,
2013-01-14 11:00:00,46.9,45.0,30.17,WNW,296,0.0,1.0,93,0.00,CLR,,0.31,WeatherDisplay:10.37,2013-01-14 16:00:00,
2013-01-14 11:01:00,47.0,45.1,30.17,WNW,289,0.0,0.0,93,0.01,CLR,,0.31,WeatherDisplay:10.37,2013-01-14 16:01:00,
2013-01-14 11:03:00,47.0,45.4,30.17,WNW,289,0.0,0.0,94,0.02,RA,,0.32,WeatherDisplay:10.37,2013-01-14 16:03:00,
2013-01-14 11:05:00,47.0,45.1,30.17,North,11,3.5,3.5,93,0.02,RA,,0.32,WeatherDisplay:10.37,2013-01-14 16:05:00,
2013-01-14 11:06:00,46.9,45.0,30.17,NW,314,1.0,1.0,93,0.02,RA,,0.32,WeatherDisplay:10.37,2013-01-14 16:06:00,
2013-01-14 11:08:00,46.9,45.0,30.17,NW,313,1.1,0.0,93,0.01,RA,,0.32,WeatherDisplay:10.37,2013-01-14 16:08:00,
2013-01-14 11:10:00,46.9,45.0,30.17,NNW,348,1.1,1.1,93,0.01,RA,,0.32,WeatherDisplay:10.37,2013-01-14 16:10:00,
2013-01-14 11:12:00,46.9,45.0,30.17,East,80,2.3,2.3,93,0.02,RA,,0.33,WeatherDisplay:10.37,2013-01-14 16:12:00,
2013-01-14 11:14:00,46.8,44.9,30.17,East,80,1.1,1.1,93,0.02,RA,,0.33,WeatherDisplay:10.37,2013-01-14 16:14:00,
2013-01-14 11:15:00,46.8,44.9,30.17,East,80,0.0,0.0,93,0.02,RA,,0.33,WeatherDisplay:10.37,2013-01-14 16:15:00,
2013-01-14 11:17:00,46.8,44.9,30.17,NW,317,1.1,0.0,93,0.02,RA,,0.33,WeatherDisplay:10.37,2013-01-14 16:17:00,
2013-01-14 11:19:00,46.8,44.9,30.17,NW,305,3.5,3.5,93,0.03,RA,,0.34,WeatherDisplay:10.37,2013-01-14 16:19:00,
2013-01-14 11:20:00,46.8,44.9,30.16,NNE,22,1.1,1.1,93,0.03,RA,,0.34,WeatherDisplay:10.37,2013-01-14 16:20:00,
2013-01-14 11:21:00,46.8,44.9,30.16,NNE,22,1.1,1.1,93,0.03,RA,,0.34,WeatherDisplay:10.37,2013-01-14 16:21:00,
2013-01-14 11:22:00,46.8,44.9,30.16,NNE,22,1.1,1.1,93,0.03,RA,,0.34,WeatherDisplay:10.37,2013-01-14 16:22:00,
2013-01-14 11:24:00,46.8,44.9,30.16,NNE,22,0.0,0.0,93,0.03,RA,,0.34,WeatherDisplay:10.37,2013-01-14 16:24:00,
2013-01-14 11:25:00,46.8,44.9,30.16,NNE,23,1.1,1.1,93,0.03,RA,,0.34,WeatherDisplay:10.37,2013-01-14 16:25:00,
2013-01-14 11:26:00,46.8,44.9,30.16,NNE,23,1.1,1.1,93,0.03,RA,,0.34,WeatherDisplay:10.37,2013-01-14 16:26:00,
2013-01-14 11:27:00,46.8,44.9,30.16,ESE,119,2.0,2.0,93,0.04,RA,,0.35,WeatherDisplay:10.37,2013-01-14 16:27:00,
2013-01-14 11:30:00,46.8,44.9,30.16,SE,140,1.1,0.0,93,0.04,RA,,0.35,WeatherDisplay:10.37,2013-01-14 16:30:00,
2013-01-14 11:31:00,46.8,44.9,30.16,SE,139,0.0,0.7,93,0.04,RA,,0.35,WeatherDisplay:10.37,2013-01-14 16:31:00,
2013-01-14 11:32:00,46.8,44.9,30.16,SE,139,0.0,0.0,93,0.04,RA,,0.35,WeatherDisplay:10.37,2013-01-14 16:32:00,
2013-01-14 11:35:00,46.8,44.9,30.16,SE,140,0.0,0.0,93,0.05,RA,,0.36,WeatherDisplay:10.37,2013-01-14 16:35:00,
2013-01-14 11:36:00,46.8,44.9,30.16,SE,140,1.1,1.1,93,0.05,RA,,0.36,WeatherDisplay:10.37,2013-01-14 16:36:00,
2013-01-14 11:37:00,46.7,44.8,30.17,SE,141,1.1,1.1,93,0.05,RA,,0.36,WeatherDisplay:10.37,2013-01-14 16:37:00,
2013-01-14 11:41:00,46.7,45.1,30.15,East,94,2.3,2.3,94,0.05,RA,,0.36,WeatherDisplay:10.37,2013-01-14 16:41:00,
2013-01-14 11:42:00,46.7,45.1,30.15,North,6,3.5,3.5,94,0.05,RA,,0.37,WeatherDisplay:10.37,2013-01-14 16:42:00,
2013-01-14 11:46:00,46.7,45.1,30.15,NNE,13,0.0,0.0,94,0.06,RA,,0.37,WeatherDisplay:10.37,2013-01-14 16:46:00,
2013-01-14 11:47:00,46.6,45.0,30.15,SE,128,2.3,2.3,94,0.06,RA,,0.37,WeatherDisplay:10.37,2013-01-14 16:47:00,
2013-01-14 11:48:00,46.7,45.1,30.15,SE,129,2.3,2.3,94,0.06,RA,,0.37,WeatherDisplay:10.37,2013-01-14 16:48:00,
2013-01-14 11:51:00,46.6,45.0,30.15,East,101,2.3,2.3,94,0.07,RA,,0.38,WeatherDisplay:10.37,2013-01-14 16:51:00,
2013-01-14 11:53:00,46.6,45.0,30.14,NE,56,1.1,1.2,94,0.07,RA,,0.38,WeatherDisplay:10.37,2013-01-14 16:53:00,
2013-01-14 11:56:00,46.6,45.0,30.14,East,89,3.5,3.5,94,0.07,RA,,0.38,WeatherDisplay:10.37,2013-01-14 16:56:00,
2013-01-14 11:58:00,46.6,45.0,30.13,East,91,1.1,1.1,94,0.07,RA,,0.38,WeatherDisplay:10.37,2013-01-14 16:58:00,
2013-01-14 11:59:00,46.7,45.1,30.13,SE,137,4.0,4.0,94,0.08,RA,,0.39,WeatherDisplay:10.37,2013-01-14 16:59:00,
2013-01-14 12:01:00,46.5,44.6,30.13,ENE,78,3.5,3.5,93,0.08,RA,,0.39,WeatherDisplay:10.37,2013-01-14 17:01:00,
2013-01-14 12:02:00,46.5,44.6,30.13,ENE,78,3.5,3.5,93,0.08,RA,,0.39,WeatherDisplay:10.37,2013-01-14 17:02:00,
2013-01-14 12:03:00,46.4,44.5,30.12,East,84,2.3,2.3,93,0.07,RA,,0.39,WeatherDisplay:10.37,2013-01-14 17:03:00,
2013-01-14 12:04:00,46.4,44.8,30.12,East,95,3.5,3.5,94,0.07,RA,,0.39,WeatherDisplay:10.37,2013-01-14 17:04:00,
2013-01-14 12:07:00,46.4,44.8,30.11,East,92,3.5,3.5,94,0.07,RA,,0.39,WeatherDisplay:10.37,2013-01-14 17:07:00,
2013-01-14 12:08:00,46.4,44.8,30.11,East,89,4.0,4.0,94,0.07,RA,,0.39,WeatherDisplay:10.37,2013-01-14 17:08:00,
2013-01-14 12:09:00,46.4,44.8,30.11,SSE,153,4.6,4.6,94,0.07,CLR,,0.39,WeatherDisplay:10.37,2013-01-14 17:09:00,
2013-01-14 12:12:00,46.5,44.9,30.10,ESE,113,3.5,3.5,94,0.06,CLR,,0.39,WeatherDisplay:10.37,2013-01-14 17:12:00,
2013-01-14 12:13:00,46.4,44.8,30.10,East,94,3.5,3.5,94,0.06,CLR,,0.39,WeatherDisplay:10.37,2013-01-14 17:13:00,
2013-01-14 12:14:00,46.4,44.8,30.11,East,99,3.5,3.5,94,0.07,RA,,0.40,WeatherDisplay:10.37,2013-01-14 17:14:00,
2013-01-14 12:17:00,46.4,44.8,30.12,NW,321,2.3,2.3,94,0.07,RA,,0.40,WeatherDisplay:10.37,2013-01-14 17:17:00,
2013-01-14 12:18:00,46.4,44.8,30.12,NNE,32,3.5,3.5,94,0.07,RA,,0.40,WeatherDisplay:10.37,2013-01-14 17:18:00,
2013-01-14 12:19:00,46.4,44.8,30.12,NNE,26,3.5,3.5,94,0.06,RA,,0.40,WeatherDisplay:10.37,2013-01-14 17:19:00,
2013-01-14 12:22:00,46.3,44.7,30.11,North,4,2.3,2.3,94,0.06,RA,,0.40,WeatherDisplay:10.37,2013-01-14 17:22:00,
2013-01-14 12:23:00,46.3,44.7,30.11,NE,46,3.5,3.5,94,0.06,RA,,0.40,WeatherDisplay:10.37,2013-01-14 17:23:00,
2013-01-14 12:24:00,46.4,44.8,30.11,NE,46,3.5,3.5,94,0.06,CLR,,0.40,WeatherDisplay:10.37,2013-01-14 17:24:00,
2013-01-14 12:27:00,46.4,45.0,30.11,North,350,3.5,3.5,95,0.05,CLR,,0.40,WeatherDisplay:10.37,2013-01-14 17:27:00,
2013-01-14 12:28:00,46.4,45.0,30.11,ENE,64,3.5,3.5,95,0.05,CLR,,0.40,WeatherDisplay:10.37,2013-01-14 17:28:00,
2013-01-14 12:29:00,46.4,44.8,30.11,East,88,4.6,4.6,94,0.05,CLR,,0.40,WeatherDisplay:10.37,2013-01-14 17:29:00,
2013-01-14 12:30:00,46.4,44.8,30.11,ENE,60,3.0,5.0,94,0.00,CLR,,0.40,WeatherDisplay:10.37,2013-01-14 17:30:00,
2013-01-14 12:33:00,46.5,44.9,30.10,ENE,77,4.6,4.6,94,0.05,CLR,,0.40,WeatherDisplay:10.37,2013-01-14 17:33:00,
2013-01-14 12:34:00,46.5,45.1,30.10,ENE,63,6.9,6.9,95,0.05,CLR,,0.40,WeatherDisplay:10.37,2013-01-14 17:34:00,
2013-01-14 12:35:00,46.4,45.1,30.10,ENE,72,5.0,7.0,95,0.00,CLR,,0.40,WeatherDisplay:10.37,2013-01-14 17:35:00,
2013-01-14 12:38:00,46.4,44.8,30.10,East,80,5.0,5.0,94,0.04,CLR,,0.40,WeatherDisplay:10.37,2013-01-14 17:38:00,
2013-01-14 12:39:00,46.4,44.8,30.10,ENE,70,5.8,5.8,94,0.04,CLR,,0.40,WeatherDisplay:10.37,2013-01-14 17:39:00,
2013-01-14 12:40:00,46.4,44.8,30.10,East,88,5.8,5.8,94,0.04,CLR,,0.40,WeatherDisplay:10.37,2013-01-14 17:40:00,
2013-01-14 12:43:00,46.4,44.8,30.11,ENE,71,3.5,3.5,94,0.03,CLR,,0.40,WeatherDisplay:10.37,2013-01-14 17:43:00,
2013-01-14 12:44:00,46.3,44.7,30.11,ENE,66,2.3,2.3,94,0.03,CLR,,0.40,WeatherDisplay:10.37,2013-01-14 17:44:00,
2013-01-14 12:45:00,46.3,44.7,30.11,NE,53,1.0,5.0,94,0.00,CLR,,0.40,WeatherDisplay:10.37,2013-01-14 17:45:00,
2013-01-14 12:48:00,46.4,44.8,30.11,North,352,0.0,0.0,94,0.03,CLR,,0.40,WeatherDisplay:10.37,2013-01-14 17:48:00,
2013-01-14 12:49:00,46.4,44.8,30.11,ENE,64,2.0,2.0,94,0.02,CLR,,0.40,WeatherDisplay:10.37,2013-01-14 17:49:00,
2013-01-14 12:50:00,46.4,44.8,30.11,NNE,30,0.0,2.0,94,0.00,CLR,,0.40,WeatherDisplay:10.37,2013-01-14 17:50:00,
2013-01-14 12:53:00,46.4,44.8,30.11,NNW,343,1.1,1.1,94,0.03,RA,,0.41,WeatherDisplay:10.37,2013-01-14 17:53:00,
2013-01-14 12:54:00,46.4,44.8,30.11,North,11,3.5,3.5,94,0.03,RA,,0.41,WeatherDisplay:10.37,2013-01-14 17:54:00,
2013-01-14 12:55:00,46.4,44.8,30.11,NNW,327,3.5,3.5,94,0.03,RA,,0.41,WeatherDisplay:10.37,2013-01-14 17:55:00,
2013-01-14 12:58:00,46.3,44.4,30.10,East,83,3.5,3.5,93,0.03,RA,,0.41,WeatherDisplay:10.37,2013-01-14 17:58:00,
2013-01-14 12:59:00,46.3,44.4,30.10,East,84,2.3,2.3,93,0.02,RA,,0.41,WeatherDisplay:10.37,2013-01-14 17:59:00,
2013-01-14 13:00:00,46.3,44.4,30.10,SE,131,2.3,2.3,93,0.02,RA,,0.41,WeatherDisplay:10.37,2013-01-14 18:00:00,
2013-01-14 13:03:00,46.3,44.7,30.10,East,86,2.3,2.3,94,0.02,CLR,,0.42,WeatherDisplay:10.37,2013-01-14 18:03:00,
2013-01-14 13:04:00,46.3,44.7,30.10,SE,129,2.3,2.3,94,0.03,RA,,0.42,WeatherDisplay:10.37,2013-01-14 18:04:00,
2013-01-14 13:05:00,46.3,44.7,30.10,SE,130,2.3,2.3,94,0.03,RA,,0.42,WeatherDisplay:10.37,2013-01-14 18:05:00,
2013-01-14 13:09:00,46.3,44.7,30.09,East,91,3.5,3.5,94,0.03,RA,,0.42,WeatherDisplay:10.37,2013-01-14 18:09:00,
2013-01-14 13:10:00,46.4,44.8,30.08,SE,136,3.5,3.5,94,0.03,RA,,0.42,WeatherDisplay:10.37,2013-01-14 18:10:00,
2013-01-14 13:14:00,46.4,44.8,30.08,SE,136,3.5,3.5,94,0.03,RA,,0.43,WeatherDisplay:10.37,2013-01-14 18:14:00,
2013-01-14 13:15:00,46.4,45.0,30.08,SE,143,2.3,2.3,95,0.03,RA,,0.43,WeatherDisplay:10.37,2013-01-14 18:15:00,
2013-01-14 13:16:00,46.4,45.0,30.08,SE,144,2.3,2.3,95,0.03,RA,,0.43,WeatherDisplay:10.37,2013-01-14 18:16:00,
2013-01-14 13:19:00,46.4,45.0,30.07,SSE,149,2.3,2.3,95,0.03,RA,,0.43,WeatherDisplay:10.37,2013-01-14 18:19:00,
2013-01-14 13:20:00,46.4,45.0,30.07,SSE,151,3.5,3.5,95,0.04,RA,,0.44,WeatherDisplay:10.37,2013-01-14 18:20:00,
2013-01-14 13:21:00,46.4,45.0,30.07,SSE,151,3.5,3.5,95,0.04,RA,,0.44,WeatherDisplay:10.37,2013-01-14 18:21:00,
2013-01-14 13:24:00,46.4,45.0,30.06,ESE,113,3.5,3.5,95,0.04,RA,,0.44,WeatherDisplay:10.37,2013-01-14 18:24:00,
2013-01-14 13:25:00,46.5,45.1,30.06,East,101,3.5,3.5,95,0.04,RA,,0.44,WeatherDisplay:10.37,2013-01-14 18:25:00,
2013-01-14 13:26:00,46.5,45.1,30.06,East,83,3.5,3.5,95,0.04,RA,,0.44,WeatherDisplay:10.37,2013-01-14 18:26:00,
2013-01-14 13:29:00,46.5,45.1,30.08,NW,312,2.0,2.0,95,0.04,RA,,0.44,WeatherDisplay:10.37,2013-01-14 18:29:00,
2013-01-14 13:30:00,46.5,45.1,30.08,NW,312,2.0,2.0,95,0.04,RA,,0.44,WeatherDisplay:10.37,2013-01-14 18:30:00,
2013-01-14 13:31:00,46.6,45.2,30.08,WNW,300,3.0,3.0,95,0.04,CLR,,0.44,WeatherDisplay:10.37,2013-01-14 18:31:00,
2013-01-14 13:35:00,46.7,45.3,30.09,NW,310,4.6,4.6,95,0.05,RA,,0.45,WeatherDisplay:10.37,2013-01-14 18:35:00,
2013-01-14 13:36:00,46.7,45.3,30.09,NW,307,3.5,3.5,95,0.05,RA,,0.45,WeatherDisplay:10.37,2013-01-14 18:36:00,
2013-01-14 13:40:00,46.7,45.3,30.08,NW,308,1.1,1.1,95,0.05,RA,,0.45,WeatherDisplay:10.37,2013-01-14 18:40:00,
2013-01-14 13:42:00,46.7,45.3,30.08,NE,36,3.5,3.5,95,0.05,CLR,,0.45,WeatherDisplay:10.37,2013-01-14 18:42:00,
2013-01-14 13:45:00,46.8,45.4,30.08,East,80,3.5,3.5,95,0.06,RA,,0.46,WeatherDisplay:10.37,2013-01-14 18:45:00,
2013-01-14 13:47:00,46.8,45.4,30.08,ENE,57,3.5,3.5,95,0.06,RA,,0.46,WeatherDisplay:10.37,2013-01-14 18:47:00,
2013-01-14 13:50:00,46.8,45.4,30.07,North,350,3.5,3.5,95,0.07,RA,,0.47,WeatherDisplay:10.37,2013-01-14 18:50:00,
2013-01-14 13:51:00,46.8,45.4,30.08,North,359,2.3,2.3,95,0.07,RA,,0.47,WeatherDisplay:10.37,2013-01-14 18:51:00,
2013-01-14 13:52:00,46.8,45.4,30.08,NNW,338,1.1,1.1,95,0.07,RA,,0.47,WeatherDisplay:10.37,2013-01-14 18:52:00,
2013-01-14 13:55:00,46.8,45.4,30.08,NW,307,3.5,3.5,95,0.06,RA,,0.47,WeatherDisplay:10.37,2013-01-14 18:55:00,
2013-01-14 13:56:00,46.9,45.5,30.08,NW,310,3.5,3.5,95,0.07,RA,,0.48,WeatherDisplay:10.37,2013-01-14 18:56:00,
2013-01-14 13:57:00,46.9,45.5,30.08,NW,310,2.3,2.3,95,0.07,RA,,0.48,WeatherDisplay:10.37,2013-01-14 18:57:00,
2013-01-14 14:00:00,46.9,45.8,30.09,West,274,1.1,1.1,96,0.07,RA,,0.48,WeatherDisplay:10.37,2013-01-14 19:00:00,
2013-01-14 14:01:00,47.0,45.9,30.09,West,276,1.1,1.1,96,0.07,RA,,0.48,WeatherDisplay:10.37,2013-01-14 19:01:00,
2013-01-14 14:02:00,47.0,45.9,30.09,NW,316,2.0,2.0,96,0.07,RA,,0.48,WeatherDisplay:10.37,2013-01-14 19:02:00,
2013-01-14 14:05:00,47.0,45.6,30.08,NW,314,1.1,0.0,95,0.06,RA,,0.48,WeatherDisplay:10.37,2013-01-14 19:05:00,
2013-01-14 14:06:00,47.0,45.6,30.08,NW,314,0.0,0.0,95,0.06,,,0.48,WeatherDisplay:10.37,2013-01-14 19:06:00,
2013-01-14 14:07:00,47.0,45.6,30.08,NW,315,0.0,0.0,95,0.06,,,0.48,WeatherDisplay:10.37,2013-01-14 19:07:00,
2013-01-14 14:08:00,47.1,46.0,30.08,NW,314,0.0,0.0,96,0.06,,,0.48,WeatherDisplay:10.37,2013-01-14 19:08:00,
2013-01-14 14:11:00,47.1,46.0,30.08,North,11,2.3,2.3,96,0.06,,,0.48,WeatherDisplay:10.37,2013-01-14 19:11:00,
2013-01-14 14:12:00,47.1,46.0,30.08,North,352,2.3,0.0,96,0.05,,,0.48,WeatherDisplay:10.37,2013-01-14 19:12:00,
2013-01-14 14:13:00,47.2,46.1,30.08,NNW,343,0.0,0.0,96,0.05,,,0.48,WeatherDisplay:10.37,2013-01-14 19:13:00,
2013-01-14 14:16:00,47.3,46.2,30.08,NNW,344,0.0,0.0,96,0.05,,,0.48,WeatherDisplay:10.37,2013-01-14 19:16:00,
2013-01-14 14:17:00,47.3,46.2,30.08,NNW,345,0.0,0.0,96,0.05,,,0.48,WeatherDisplay:10.37,2013-01-14 19:17:00,
2013-01-14 14:19:00,47.4,46.3,30.08,NNW,344,0.0,0.0,96,0.05,,,0.48,WeatherDisplay:10.37,2013-01-14 19:19:00,
2013-01-14 14:21:00,47.5,46.4,30.08,NNW,344,0.0,0.0,96,0.04,,,0.48,WeatherDisplay:10.37,2013-01-14 19:21:00,
2013-01-14 14:22:00,47.5,46.4,30.08,NNW,345,0.0,0.0,96,0.04,,,0.48,WeatherDisplay:10.37,2013-01-14 19:22:00,
2013-01-14 14:24:00,47.6,46.5,30.08,NE,56,2.0,2.0,96,0.04,,,0.48,WeatherDisplay:10.37,2013-01-14 19:24:00,
2013-01-14 14:26:00,47.6,46.2,30.08,NE,56,0.0,0.1,95,0.04,,,0.48,WeatherDisplay:10.37,2013-01-14 19:26:00,
2013-01-14 14:27:00,47.6,46.2,30.08,NE,55,1.1,1.1,95,0.04,,,0.48,WeatherDisplay:10.37,2013-01-14 19:27:00,
2013-01-14 14:28:00,47.6,46.2,30.08,NE,56,0.0,0.0,95,0.04,,,0.48,WeatherDisplay:10.37,2013-01-14 19:28:00,
2013-01-14 14:29:00,47.6,46.2,30.09,NE,56,0.0,0.0,95,0.04,,,0.48,WeatherDisplay:10.37,2013-01-14 19:29:00,
2013-01-14 14:32:00,47.7,46.3,30.09,SSE,147,1.1,1.1,95,0.03,,,0.48,WeatherDisplay:10.37,2013-01-14 19:32:00,
2013-01-14 14:33:00,47.8,46.4,30.09,SSE,147,0.0,0.0,95,0.03,,,0.48,WeatherDisplay:10.37,2013-01-14 19:33:00,
2013-01-14 14:34:00,47.8,46.4,30.09,SSE,147,0.0,0.0,95,0.03,,,0.48,WeatherDisplay:10.37,2013-01-14 19:34:00,
2013-01-14 14:37:00,47.9,46.5,30.10,SSE,147,0.0,0.0,95,0.03,,,0.48,WeatherDisplay:10.37,2013-01-14 19:37:00,
2013-01-14 14:38:00,47.9,46.5,30.10,SSE,147,0.0,0.0,95,0.03,,,0.48,WeatherDisplay:10.37,2013-01-14 19:38:00,
2013-01-14 14:39:00,47.9,46.5,30.10,SSE,147,0.0,0.0,95,0.04,RA,,0.49,WeatherDisplay:10.37,2013-01-14 19:39:00,
2013-01-14 14:42:00,48.0,46.6,30.10,WSW,258,2.3,2.3,95,0.04,RA,,0.49,WeatherDisplay:10.37,2013-01-14 19:42:00,
2013-01-14 14:43:00,48.0,46.6,30.11,WNW,299,2.3,2.3,95,0.04,RA,,0.49,WeatherDisplay:10.37,2013-01-14 19:43:00,
2013-01-14 14:44:00,48.0,46.6,30.11,WNW,286,2.3,2.3,95,0.03,RA,,0.49,WeatherDisplay:10.37,2013-01-14 19:44:00,
2013-01-14 14:47:00,47.9,46.5,30.11,WNW,297,0.0,0.0,95,0.03,RA,,0.49,WeatherDisplay:10.37,2013-01-14 19:47:00,
2013-01-14 14:48:00,47.9,46.5,30.11,WNW,297,1.1,0.0,95,0.03,RA,,0.49,WeatherDisplay:10.37,2013-01-14 19:48:00,
2013-01-14 14:49:00,47.9,46.5,30.11,WNW,297,0.0,0.1,95,0.03,,,0.49,WeatherDisplay:10.37,2013-01-14 19:49:00,
2013-01-14 14:52:00,47.9,46.5,30.10,WNW,297,0.0,0.0,95,0.02,,,0.49,WeatherDisplay:10.37,2013-01-14 19:52:00,
2013-01-14 14:53:00,47.9,46.5,30.10,WNW,296,0.0,0.0,95,0.02,,,0.49,WeatherDisplay:10.37,2013-01-14 19:53:00,
2013-01-14 14:54:00,47.9,46.5,30.09,SSW,201,2.0,2.0,95,0.02,,,0.50,WeatherDisplay:10.37,2013-01-14 19:54:00,
2013-01-14 14:55:00,47.9,46.5,30.09,WNW,286,1.0,2.0,95,0.01,RA,,0.50,WeatherDisplay:10.37,2013-01-14 19:55:00,
2013-01-14 14:58:00,47.8,46.4,30.09,SE,139,2.3,2.3,95,0.02,RA,,0.50,WeatherDisplay:10.37,2013-01-14 19:58:00,
2013-01-14 14:59:00,47.8,46.4,30.09,SE,140,2.3,2.3,95,0.02,RA,,0.50,WeatherDisplay:10.37,2013-01-14 19:59:00,
2013-01-14 15:00:00,47.8,46.4,30.09,South,177,1.0,2.0,95,0.00,RA,,0.50,WeatherDisplay:10.37,2013-01-14 20:00:00,
2013-01-14 15:03:00,47.7,46.3,30.08,SE,124,3.5,3.5,95,0.03,RA,,0.51,WeatherDisplay:10.37,2013-01-14 20:03:00,
2013-01-14 15:04:00,47.7,46.3,30.08,SE,124,3.5,3.5,95,0.03,RA,,0.51,WeatherDisplay:10.37,2013-01-14 20:04:00,
2013-01-14 15:05:00,47.7,46.3,30.08,East,88,3.5,3.5,95,0.04,RA,,0.52,WeatherDisplay:10.37,2013-01-14 20:05:00,
2013-01-14 15:08:00,47.6,46.2,30.09,East,94,1.1,1.1,95,0.04,RA,,0.52,WeatherDisplay:10.37,2013-01-14 20:08:00,
2013-01-14 15:09:00,47.6,46.2,30.09,East,92,1.1,1.1,95,0.05,RA,,0.53,WeatherDisplay:10.37,2013-01-14 20:09:00,
2013-01-14 15:10:00,47.6,46.2,30.09,NW,326,1.1,1.1,95,0.05,RA,,0.53,WeatherDisplay:10.37,2013-01-14 20:10:00,
2013-01-14 15:11:00,47.6,46.2,30.10,NW,311,3.5,3.5,95,0.05,RA,,0.53,WeatherDisplay:10.37,2013-01-14 20:11:00,
2013-01-14 15:13:00,47.6,46.2,30.10,NW,313,2.3,2.3,95,0.05,RA,,0.53,WeatherDisplay:10.37,2013-01-14 20:13:00,
2013-01-14 15:14:00,47.6,46.5,30.11,NW,313,1.1,0.0,96,0.05,RA,,0.54,WeatherDisplay:10.37,2013-01-14 20:14:00,
2013-01-14 15:15:00,47.6,46.5,30.10,NW,314,0.0,0.0,96,0.06,RA,,0.54,WeatherDisplay:10.37,2013-01-14 20:15:00,
2013-01-14 15:16:00,47.7,46.6,30.10,NW,313,0.0,0.0,96,0.06,RA,,0.54,WeatherDisplay:10.37,2013-01-14 20:16:00,
2013-01-14 15:18:00,47.7,46.6,30.10,NW,313,1.1,1.1,96,0.06,RA,,0.54,WeatherDisplay:10.37,2013-01-14 20:18:00,
2013-01-14 15:19:00,47.7,46.6,30.10,NW,313,0.0,0.0,96,0.06,RA,,0.54,WeatherDisplay:10.37,2013-01-14 20:19:00,
2013-01-14 15:20:00,47.7,46.6,30.10,NW,314,0.0,0.0,96,0.06,RA,,0.55,WeatherDisplay:10.37,2013-01-14 20:20:00,
2013-01-14 15:21:00,47.7,46.6,30.11,NW,313,0.0,0.0,96,0.07,RA,,0.55,WeatherDisplay:10.37,2013-01-14 20:21:00,
2013-01-14 15:23:00,47.7,46.6,30.12,West,281,0.0,0.0,96,0.07,RA,,0.55,WeatherDisplay:10.37,2013-01-14 20:23:00,
2013-01-14 15:25:00,47.7,46.6,30.12,West,281,1.1,1.1,96,0.07,RA,,0.55,WeatherDisplay:10.37,2013-01-14 20:25:00,
2013-01-14 15:26:00,47.7,46.6,30.11,West,281,0.0,0.0,96,0.07,RA,,0.55,WeatherDisplay:10.37,2013-01-14 20:26:00,
2013-01-14 15:27:00,47.7,46.6,30.11,West,281,0.0,0.1,96,0.07,RA,,0.55,WeatherDisplay:10.37,2013-01-14 20:27:00,
2013-01-14 15:29:00,47.7,46.6,30.11,West,281,2.3,2.3,96,0.07,RA,,0.56,WeatherDisplay:10.37,2013-01-14 20:29:00,
2013-01-14 15:31:00,47.7,46.6,30.11,West,281,1.1,1.1,96,0.08,RA,,0.56,WeatherDisplay:10.37,2013-01-14 20:31:00,
2013-01-14 15:33:00,47.6,46.5,30.11,NW,321,1.1,1.1,96,0.08,RA,,0.56,WeatherDisplay:10.37,2013-01-14 20:33:00,
2013-01-14 15:34:00,47.6,46.5,30.11,NNW,331,2.3,2.3,96,0.08,RA,,0.56,WeatherDisplay:10.37,2013-01-14 20:34:00,
2013-01-14 15:36:00,47.6,46.5,30.11,NW,309,2.3,2.3,96,0.08,RA,,0.56,WeatherDisplay:10.37,2013-01-14 20:36:00,
2013-01-14 15:38:00,47.6,46.5,30.11,NE,46,2.3,2.3,96,0.09,RA,,0.57,WeatherDisplay:10.37,2013-01-14 20:38:00,
2013-01-14 15:39:00,47.6,46.5,30.11,NE,46,0.0,0.0,96,0.08,RA,,0.57,WeatherDisplay:10.37,2013-01-14 20:39:00,
2013-01-14 15:41:00,47.6,46.5,30.11,NE,46,0.0,0.0,96,0.08,RA,,0.57,WeatherDisplay:10.37,2013-01-14 20:41:00,
2013-01-14 15:43:00,47.6,46.5,30.10,East,101,2.3,2.3,96,0.08,RA,,0.57,WeatherDisplay:10.37,2013-01-14 20:43:00,
2013-01-14 15:44:00,47.6,46.5,30.10,East,91,3.5,3.5,96,0.08,RA,,0.57,WeatherDisplay:10.37,2013-01-14 20:44:00,
2013-01-14 15:46:00,47.5,46.4,30.10,East,82,2.3,2.3,96,0.09,RA,,0.58,WeatherDisplay:10.37,2013-01-14 20:46:00,
2013-01-14 15:48:00,47.5,46.4,30.10,East,81,1.1,1.1,96,0.09,RA,,0.58,WeatherDisplay:10.37,2013-01-14 20:48:00,
2013-01-14 15:49:00,47.5,46.4,30.10,NNW,327,1.1,1.1,96,0.09,RA,,0.58,WeatherDisplay:10.37,2013-01-14 20:49:00,
2013-01-14 15:51:00,47.5,46.4,30.10,ESE,113,2.0,2.0,96,0.09,RA,,0.58,WeatherDisplay:10.37,2013-01-14 20:51:00,
2013-01-14 15:52:00,47.5,46.4,30.10,East,91,3.0,3.0,96,0.09,RA,,0.58,WeatherDisplay:10.37,2013-01-14 20:52:00,
2013-01-14 15:53:00,47.5,46.4,30.10,East,89,3.5,3.5,96,0.09,RA,,0.59,WeatherDisplay:10.37,2013-01-14 20:53:00,
2013-01-14 15:54:00,47.5,46.4,30.10,East,99,3.5,3.5,96,0.10,RA,,0.59,WeatherDisplay:10.37,2013-01-14 20:54:00,
2013-01-14 15:57:00,47.5,46.4,30.10,East,84,1.1,1.1,96,0.09,RA,,0.59,WeatherDisplay:10.37,2013-01-14 20:57:00,
2013-01-14 15:59:00,47.5,46.4,30.10,East,82,1.1,1.1,96,0.09,RA,,0.59,WeatherDisplay:10.37,2013-01-14 20:59:00,
2013-01-14 16:00:00,47.5,46.4,30.10,ENE,68,0.0,3.0,96,0.00,RA,,0.59,WeatherDisplay:10.37,2013-01-14 21:00:00,
2013-01-14 16:02:00,47.5,46.4,30.10,NNE,22,2.3,2.3,96,0.08,RA,,0.59,WeatherDisplay:10.37,2013-01-14 21:02:00,
2013-01-14 16:04:00,47.4,46.3,30.10,NNW,327,2.3,2.3,96,0.08,,,0.59,WeatherDisplay:10.37,2013-01-14 21:04:00,
2013-01-14 16:05:00,47.4,46.3,30.11,NW,324,2.3,2.3,96,0.07,,,0.59,WeatherDisplay:10.37,2013-01-14 21:05:00,
2013-01-14 16:07:00,47.4,46.3,30.11,NW,324,0.0,0.0,96,0.07,,,0.59,WeatherDisplay:10.37,2013-01-14 21:07:00,
2013-01-14 16:09:00,47.3,46.2,30.11,SE,134,2.3,2.3,96,0.06,,,0.59,WeatherDisplay:10.37,2013-01-14 21:09:00,
2013-01-14 16:10:00,47.3,46.2,30.11,SE,145,3.5,3.5,96,0.06,,,0.59,WeatherDisplay:10.37,2013-01-14 21:10:00,
2013-01-14 16:12:00,47.3,46.2,30.11,ENE,67,3.0,3.0,96,0.06,,,0.59,WeatherDisplay:10.37,2013-01-14 21:12:00,
2013-01-14 16:13:00,47.3,45.9,30.11,East,85,3.5,3.5,95,0.06,,,0.60,WeatherDisplay:10.37,2013-01-14 21:13:00,
2013-01-14 16:15:00,47.3,45.9,30.11,East,89,3.5,3.5,95,0.06,RA,,0.60,WeatherDisplay:10.37,2013-01-14 21:15:00,
2013-01-14 16:18:00,47.3,45.9,30.10,ESE,112,2.3,2.3,95,0.06,RA,,0.60,WeatherDisplay:10.37,2013-01-14 21:18:00,
2013-01-14 16:20:00,47.3,45.9,30.10,SE,126,3.5,3.5,95,0.06,RA,,0.60,WeatherDisplay:10.37,2013-01-14 21:20:00,
2013-01-14 16:21:00,47.3,45.9,30.10,SSE,150,2.3,2.3,95,0.05,RA,,0.60,WeatherDisplay:10.37,2013-01-14 21:21:00,
2013-01-14 16:23:00,47.3,45.9,30.10,ESE,109,2.3,2.3,95,0.05,RA,,0.60,WeatherDisplay:10.37,2013-01-14 21:23:00,
2013-01-14 16:24:00,47.3,45.9,30.10,ENE,64,2.3,2.3,95,0.05,,,0.60,WeatherDisplay:10.37,2013-01-14 21:24:00,
2013-01-14 16:25:00,47.3,45.9,30.10,East,98,2.3,2.3,95,0.05,,,0.60,WeatherDisplay:10.37,2013-01-14 21:25:00,
2013-01-14 16:26:00,47.3,45.9,30.10,East,95,2.3,2.3,95,0.05,,,0.60,WeatherDisplay:10.37,2013-01-14 21:26:00,
2013-01-14 16:29:00,47.3,45.9,30.10,ESE,105,1.1,1.1,95,0.05,,,0.60,WeatherDisplay:10.37,2013-01-14 21:29:00,
2013-01-14 16:31:00,47.4,46.0,30.10,East,89,2.3,2.3,95,0.04,,,0.60,WeatherDisplay:10.37,2013-01-14 21:31:00,
2013-01-14 16:32:00,47.4,46.3,30.10,East,89,1.1,1.1,96,0.04,,,0.60,WeatherDisplay:10.37,2013-01-14 21:32:00,
2013-01-14 16:34:00,47.4,46.3,30.11,ESE,103,3.5,3.5,96,0.04,,,0.60,WeatherDisplay:10.37,2013-01-14 21:34:00,
2013-01-14 16:36:00,47.4,46.0,30.11,ESE,102,3.5,3.5,95,0.04,,,0.60,WeatherDisplay:10.37,2013-01-14 21:36:00,
2013-01-14 16:37:00,47.4,46.0,30.10,ESE,103,3.5,3.5,95,0.04,,,0.60,WeatherDisplay:10.37,2013-01-14 21:37:00,
2013-01-14 16:39:00,47.4,46.3,30.10,SSE,162,3.5,3.5,96,0.03,,,0.60,WeatherDisplay:10.37,2013-01-14 21:39:00,
2013-01-14 16:40:00,47.4,46.3,30.11,SSE,162,2.3,2.3,96,0.03,,,0.60,WeatherDisplay:10.37,2013-01-14 21:40:00,
2013-01-14 16:42:00,47.4,46.3,30.11,ENE,71,2.3,2.3,96,0.03,,,0.61,WeatherDisplay:10.37,2013-01-14 21:42:00,
2013-01-14 16:45:00,47.4,46.3,30.10,ENE,78,2.3,2.3,96,0.04,RA,,0.61,WeatherDisplay:10.37,2013-01-14 21:45:00,
2013-01-14 16:47:00,47.4,46.3,30.11,East,90,2.3,2.3,96,0.03,RA,,0.61,WeatherDisplay:10.37,2013-01-14 21:47:00,
2013-01-14 16:50:00,47.4,46.3,30.11,NNE,22,2.3,0.0,96,0.03,RA,,0.61,WeatherDisplay:10.37,2013-01-14 21:50:00,
2013-01-14 16:52:00,47.4,46.3,30.11,NNW,338,1.1,1.1,96,0.03,RA,,0.61,WeatherDisplay:10.37,2013-01-14 21:52:00,
2013-01-14 16:55:00,47.3,46.2,30.11,NE,49,3.5,3.5,96,0.02,,,0.61,WeatherDisplay:10.37,2013-01-14 21:55:00,
2013-01-14 16:56:00,47.3,46.2,30.11,North,6,3.5,3.5,96,0.02,,,0.61,WeatherDisplay:10.37,2013-01-14 21:56:00,
2013-01-14 16:57:00,47.3,46.2,30.11,North,5,2.3,2.3,96,0.03,RA,,0.62,WeatherDisplay:10.37,2013-01-14 21:57:00,
2013-01-14 17:00:00,47.3,46.2,30.12,North,4,0.0,0.0,96,0.03,RA,,0.62,WeatherDisplay:10.37,2013-01-14 22:00:00,
2013-01-14 17:01:00,47.3,46.2,30.12,NNW,343,0.0,0.0,96,0.03,RA,,0.62,WeatherDisplay:10.37,2013-01-14 22:01:00,
2013-01-14 17:03:00,47.3,46.2,30.12,WNW,303,2.3,2.3,96,0.03,RA,,0.62,WeatherDisplay:10.37,2013-01-14 22:03:00,
2013-01-14 17:06:00,47.3,46.2,30.12,NW,307,3.5,3.5,96,0.03,RA,,0.62,WeatherDisplay:10.37,2013-01-14 22:06:00,
2013-01-14 17:08:00,47.3,46.2,30.13,NW,307,0.0,0.0,96,0.03,,,0.63,WeatherDisplay:10.37,2013-01-14 22:08:00,
2013-01-14 17:11:00,47.4,46.3,30.13,WSW,257,0.0,0.0,96,0.04,RA,,0.63,WeatherDisplay:10.37,2013-01-14 22:11:00,
2013-01-14 17:12:00,47.4,46.3,30.13,WSW,258,0.0,0.0,96,0.04,RA,,0.63,WeatherDisplay:10.37,2013-01-14 22:12:00,
2013-01-14 17:13:00,47.4,46.3,30.13,West,259,1.1,0.0,96,0.05,RA,,0.64,WeatherDisplay:10.37,2013-01-14 22:13:00,
2013-01-14 17:16:00,47.3,46.2,30.13,West,280,1.1,1.1,96,0.04,RA,,0.64,WeatherDisplay:10.37,2013-01-14 22:16:00,
2013-01-14 17:17:00,47.3,46.2,30.13,NW,305,2.3,2.3,96,0.04,RA,,0.64,WeatherDisplay:10.37,2013-01-14 22:17:00,
2013-01-14 17:18:00,47.3,46.2,30.13,NW,305,3.5,3.5,96,0.05,RA,,0.65,WeatherDisplay:10.37,2013-01-14 22:18:00,
2013-01-14 17:21:00,47.3,46.2,30.14,NW,305,0.0,0.0,96,0.05,RA,,0.65,WeatherDisplay:10.37,2013-01-14 22:21:00,
2013-01-14 17:22:00,47.3,46.2,30.14,NW,305,0.0,0.0,96,0.05,RA,,0.65,WeatherDisplay:10.37,2013-01-14 22:22:00,
2013-01-14 17:23:00,47.3,46.2,30.14,WNW,303,0.0,0.0,96,0.05,RA,,0.65,WeatherDisplay:10.37,2013-01-14 22:23:00,
2013-01-14 17:26:00,47.3,46.2,30.13,SE,141,1.1,1.1,96,0.06,RA,,0.66,WeatherDisplay:10.37,2013-01-14 22:26:00,
2013-01-14 17:27:00,47.3,46.2,30.13,SE,141,1.1,1.1,96,0.06,RA,,0.67,WeatherDisplay:10.37,2013-01-14 22:27:00,
2013-01-14 17:28:00,47.2,46.1,30.13,SE,141,1.1,1.1,96,0.07,RA,,0.67,WeatherDisplay:10.37,2013-01-14 22:28:00,
2013-01-14 17:31:00,47.2,46.1,30.13,SE,131,2.3,0.0,96,0.07,RA,,0.67,WeatherDisplay:10.37,2013-01-14 22:31:00,
2013-01-14 17:32:00,47.2,46.1,30.13,SE,131,0.0,0.0,96,0.07,RA,,0.67,WeatherDisplay:10.37,2013-01-14 22:32:00,
2013-01-14 17:34:00,47.2,46.1,30.14,SE,131,0.0,0.0,96,0.07,RA,,0.67,WeatherDisplay:10.37,2013-01-14 22:34:00,
2013-01-14 17:37:00,47.2,46.1,30.14,SE,133,0.0,0.2,96,0.08,RA,,0.68,WeatherDisplay:10.37,2013-01-14 22:37:00,
2013-01-14 17:39:00,47.2,46.1,30.14,SE,132,0.0,0.0,96,0.08,RA,,0.68,WeatherDisplay:10.37,2013-01-14 22:39:00,
2013-01-14 17:40:00,47.3,46.2,30.14,SE,132,0.0,0.0,96,0.08,RA,,0.68,WeatherDisplay:10.37,2013-01-14 22:40:00,
2013-01-14 17:42:00,47.3,46.2,30.14,SE,134,0.0,0.0,96,0.08,RA,,0.69,WeatherDisplay:10.37,2013-01-14 22:42:00,
2013-01-14 17:43:00,47.2,46.1,30.15,SE,134,0.0,0.0,96,0.08,RA,,0.69,WeatherDisplay:10.37,2013-01-14 22:43:00,
2013-01-14 17:44:00,47.2,46.1,30.15,SE,134,0.0,0.0,96,0.08,RA,,0.69,WeatherDisplay:10.37,2013-01-14 22:44:00,
2013-01-14 17:45:00,47.3,46.2,30.15,SE,134,0.0,0.0,96,0.08,RA,,0.69,WeatherDisplay:10.37,2013-01-14 22:45:00,
2013-01-14 17:47:00,47.3,46.2,30.15,SE,134,0.0,0.0,96,0.09,RA,,0.70,WeatherDisplay:10.37,2013-01-14 22:47:00,
2013-01-14 17:48:00,47.3,46.2,30.15,SE,134,0.0,0.0,96,0.09,RA,,0.70,WeatherDisplay:10.37,2013-01-14 22:48:00,
2013-01-14 17:49:00,47.3,46.2,30.15,SE,134,0.0,0.0,96,0.09,RA,,0.70,WeatherDisplay:10.37,2013-01-14 22:49:00,
2013-01-14 17:50:00,47.3,46.2,30.15,SE,134,0.0,0.0,96,0.09,RA,,0.71,WeatherDisplay:10.37,2013-01-14 22:50:00,
2013-01-14 17:53:00,47.3,46.2,30.15,SE,134,0.0,0.0,96,0.10,RA,,0.71,WeatherDisplay:10.37,2013-01-14 22:53:00,
2013-01-14 17:54:00,47.3,46.2,30.15,SE,134,0.0,0.0,96,0.10,RA,,0.72,WeatherDisplay:10.37,2013-01-14 22:54:00,
2013-01-14 17:55:00,47.3,46.2,30.15,SE,134,0.0,0.0,96,0.11,RA,,0.72,WeatherDisplay:10.37,2013-01-14 22:55:00,
2013-01-14 17:58:00,47.3,46.2,30.15,SE,134,0.0,0.0,96,0.11,RA,,0.73,WeatherDisplay:10.37,2013-01-14 22:58:00,
2013-01-14 17:59:00,47.2,46.1,30.15,SE,134,0.0,0.0,96,0.11,RA,,0.73,WeatherDisplay:10.37,2013-01-14 22:59:00,
2013-01-14 18:01:00,47.3,46.2,30.16,SE,134,0.0,0.0,96,0.12,RA,,0.74,WeatherDisplay:10.37,2013-01-14 23:01:00,
2013-01-14 18:03:00,47.2,46.1,30.16,SE,134,0.0,0.0,96,0.12,RA,,0.75,WeatherDisplay:10.37,2013-01-14 23:03:00,
2013-01-14 18:04:00,47.2,46.1,30.16,SE,134,0.0,0.0,96,0.13,RA,,0.75,WeatherDisplay:10.37,2013-01-14 23:04:00,
2013-01-14 18:06:00,47.2,46.4,30.16,SE,134,0.0,0.0,97,0.13,RA,,0.75,WeatherDisplay:10.37,2013-01-14 23:06:00,
2013-01-14 18:09:00,47.2,46.1,30.16,SE,136,0.0,0.0,96,0.13,RA,,0.76,WeatherDisplay:10.37,2013-01-14 23:09:00,
2013-01-14 18:10:00,47.2,46.1,30.16,SE,136,0.0,0.0,96,0.13,RA,,0.76,WeatherDisplay:10.37,2013-01-14 23:10:00,
2013-01-14 18:11:00,47.2,46.1,30.16,SE,135,0.0,0.0,96,0.14,RA,,0.77,WeatherDisplay:10.37,2013-01-14 23:11:00,
2013-01-14 18:14:00,47.2,46.1,30.16,SE,136,1.1,0.0,96,0.14,RA,,0.78,WeatherDisplay:10.37,2013-01-14 23:14:00,
2013-01-14 18:15:00,47.2,46.1,30.16,SE,136,0.0,1.0,96,0.00,RA,,0.78,WeatherDisplay:10.37,2013-01-14 23:15:00,
2013-01-14 18:16:00,47.2,46.1,30.16,SE,130,1.1,1.1,96,0.14,RA,,0.79,WeatherDisplay:10.37,2013-01-14 23:16:00,
2013-01-14 18:19:00,47.1,46.0,30.16,WNW,295,1.1,1.1,96,0.15,RA,,0.80,WeatherDisplay:10.37,2013-01-14 23:19:00,
2013-01-14 18:20:00,47.1,46.0,30.16,WNW,297,2.3,2.3,96,0.15,RA,,0.80,WeatherDisplay:10.37,2013-01-14 23:20:00,
2013-01-14 18:22:00,47.1,46.0,30.16,WNW,303,5.8,5.8,96,0.16,RA,,0.81,WeatherDisplay:10.37,2013-01-14 23:22:00,
2013-01-14 18:24:00,46.9,45.8,30.16,NE,55,4.6,4.6,96,0.15,RA,,0.82,WeatherDisplay:10.37,2013-01-14 23:24:00,
2013-01-14 18:25:00,46.9,45.5,30.16,NW,306,4.6,4.6,95,0.16,RA,,0.82,WeatherDisplay:10.37,2013-01-14 23:25:00,
2013-01-14 18:26:00,46.8,45.4,30.16,ENE,68,4.0,4.0,95,0.16,RA,,0.82,WeatherDisplay:10.37,2013-01-14 23:26:00,
2013-01-14 18:27:00,46.7,45.3,30.16,ENE,65,5.0,5.0,95,0.16,RA,,0.83,WeatherDisplay:10.37,2013-01-14 23:27:00,
2013-01-14 18:30:00,46.5,44.9,30.16,NNW,330,2.3,2.3,94,0.17,RA,,0.84,WeatherDisplay:10.37,2013-01-14 23:30:00,
2013-01-14 18:31:00,46.4,44.8,30.16,NW,316,3.5,3.5,94,0.17,RA,,0.84,WeatherDisplay:10.37,2013-01-14 23:31:00,
2013-01-14 18:33:00,46.3,44.7,30.17,NW,316,2.3,0.0,94,0.17,RA,,0.85,WeatherDisplay:10.37,2013-01-14 23:33:00,
2013-01-14 18:35:00,46.1,44.5,30.17,West,275,2.3,2.3,94,0.18,RA,,0.85,WeatherDisplay:10.37,2013-01-14 23:35:00,
2013-01-14 18:36:00,46.1,44.5,30.17,West,277,2.3,2.3,94,0.18,RA,,0.86,WeatherDisplay:10.37,2013-01-14 23:36:00,
2013-01-14 18:38:00,46.0,44.4,30.17,West,276,1.0,0.0,94,0.19,RA,,0.87,WeatherDisplay:10.37,2013-01-14 23:38:00,
2013-01-14 18:40:00,45.9,44.3,30.17,SE,136,2.3,2.3,94,0.20,RA,,0.88,WeatherDisplay:10.37,2013-01-14 23:40:00,
2013-01-14 18:41:00,45.9,44.3,30.17,SE,136,2.0,2.0,94,0.20,RA,,0.88,WeatherDisplay:10.37,2013-01-14 23:41:00,
2013-01-14 18:42:00,45.8,44.2,30.17,SE,135,2.3,2.3,94,0.20,RA,,0.88,WeatherDisplay:10.37,2013-01-14 23:42:00,
2013-01-14 18:43:00,45.7,44.1,30.17,SE,136,2.3,2.3,94,0.20,RA,,0.89,WeatherDisplay:10.37,2013-01-14 23:43:00,
2013-01-14 18:46:00,45.6,44.0,30.18,WNW,295,2.0,2.0,94,0.20,RA,,0.90,WeatherDisplay:10.37,2013-01-14 23:46:00,
2013-01-14 18:47:00,45.5,43.9,30.18,WNW,296,2.3,2.3,94,0.20,RA,,0.90,WeatherDisplay:10.37,2013-01-14 23:47:00,
2013-01-14 18:48:00,45.5,44.2,30.18,WNW,282,1.1,1.1,95,0.21,RA,,0.91,WeatherDisplay:10.37,2013-01-14 23:48:00,
2013-01-14 18:51:00,45.5,44.2,30.18,West,281,0.0,0.0,95,0.21,RA,,0.92,WeatherDisplay:10.37,2013-01-14 23:51:00,
2013-01-14 18:52:00,45.5,44.2,30.18,West,267,1.1,1.1,95,0.21,RA,,0.92,WeatherDisplay:10.37,2013-01-14 23:52:00,
2013-01-14 18:53:00,45.4,44.1,30.18,WNW,287,1.1,1.1,95,0.22,RA,,0.93,WeatherDisplay:10.37,2013-01-14 23:53:00,
2013-01-14 18:56:00,45.3,44.0,30.18,WNW,292,4.0,4.0,95,0.22,RA,,0.94,WeatherDisplay:10.37,2013-01-14 23:56:00,
2013-01-14 18:57:00,45.3,44.0,30.18,WNW,290,4.6,4.6,95,0.21,RA,,0.94,WeatherDisplay:10.37,2013-01-14 23:57:00,
2013-01-14 18:59:00,45.2,43.9,30.18,WNW,282,2.3,2.3,95,0.22,RA,,0.95,WeatherDisplay:10.37,2013-01-14 23:59:00,
2013-01-14 19:01:00,45.0,43.7,30.18,NW,306,3.5,3.5,95,0.21,RA,,0.96,WeatherDisplay:10.37,2013-01-15 00:01:00,
2013-01-14 19:02:00,45.0,43.7,30.18,NW,306,3.5,3.5,95,0.22,RA,,0.96,WeatherDisplay:10.37,2013-01-15 00:02:00,
2013-01-14 19:04:00,44.9,43.6,30.18,NW,306,0.0,0.1,95,0.21,RA,,0.96,WeatherDisplay:10.37,2013-01-15 00:04:00,
2013-01-14 19:06:00,44.9,43.6,30.19,WNW,283,2.3,2.3,95,0.21,RA,,0.96,WeatherDisplay:10.37,2013-01-15 00:06:00,
2013-01-14 19:07:00,44.8,43.5,30.19,West,276,2.3,2.3,95,0.20,RA,,0.96,WeatherDisplay:10.37,2013-01-15 00:07:00,
2013-01-14 19:09:00,44.8,43.5,30.20,West,274,1.1,1.1,95,0.21,RA,,0.97,WeatherDisplay:10.37,2013-01-15 00:09:00,
2013-01-14 19:11:00,44.7,43.4,30.20,WSW,255,2.3,2.3,95,0.20,RA,,0.97,WeatherDisplay:10.37,2013-01-15 00:11:00,
2013-01-14 19:12:00,44.7,43.4,30.20,WSW,255,2.3,2.3,95,0.20,RA,,0.97,WeatherDisplay:10.37,2013-01-15 00:12:00,
2013-01-14 19:13:00,44.7,43.4,30.20,WSW,255,2.3,2.3,95,0.20,RA,,0.97,WeatherDisplay:10.37,2013-01-15 00:13:00,
2013-01-14 19:15:00,44.6,43.3,30.21,West,272,1.0,3.0,95,0.00,RA,,0.97,WeatherDisplay:10.37,2013-01-15 00:15:00,
2013-01-14 19:16:00,44.4,43.1,30.21,WSW,255,3.5,3.5,95,0.19,RA,,0.97,WeatherDisplay:10.37,2013-01-15 00:16:00,
2013-01-14 19:18:00,44.3,43.0,30.22,West,279,3.5,3.5,95,0.18,RA,,0.97,WeatherDisplay:10.37,2013-01-15 00:18:00,
2013-01-14 19:20:00,44.1,42.8,30.22,West,261,3.5,3.5,95,0.17,CLR,,0.97,WeatherDisplay:10.37,2013-01-15 00:20:00,
2013-01-14 19:21:00,44.0,42.7,30.22,WSW,237,4.0,4.0,95,0.18,RA,,0.98,WeatherDisplay:10.37,2013-01-15 00:21:00,
2013-01-14 19:23:00,43.9,42.6,30.22,West,272,8.1,8.1,95,0.17,RA,,0.98,WeatherDisplay:10.37,2013-01-15 00:23:00,
2013-01-14 19:25:00,43.7,42.1,30.22,WSW,253,4.6,4.6,94,0.17,RA,,0.99,WeatherDisplay:10.37,2013-01-15 00:25:00,
2013-01-14 19:27:00,43.6,42.3,30.22,West,262,3.5,3.5,95,0.17,RA,,0.99,WeatherDisplay:10.37,2013-01-15 00:27:00,
2013-01-14 19:28:00,43.6,42.3,30.22,West,267,3.5,3.5,95,0.17,RA,,1.00,WeatherDisplay:10.37,2013-01-15 00:28:00,
2013-01-14 19:30:00,43.4,42.1,30.22,WSW,242,3.5,3.5,95,0.16,RA,,1.00,WeatherDisplay:10.37,2013-01-15 00:30:00,
2013-01-14 19:32:00,43.3,42.0,30.22,WSW,248,4.0,4.0,95,0.16,RA,,1.00,WeatherDisplay:10.37,2013-01-15 00:32:00,
2013-01-14 19:33:00,43.3,42.0,30.22,WSW,241,3.5,3.5,95,0.16,RA,,1.01,WeatherDisplay:10.37,2013-01-15 00:33:00,
2013-01-14 19:35:00,42.9,41.3,30.23,WSW,241,8.1,8.1,94,0.16,RA,,1.01,WeatherDisplay:10.37,2013-01-15 00:35:00,
2013-01-14 19:37:00,42.7,41.1,30.23,SW,215,5.8,5.8,94,0.15,RA,,1.01,WeatherDisplay:10.37,2013-01-15 00:37:00,
2013-01-14 19:38:00,42.5,40.9,30.23,WNW,302,4.0,4.0,94,0.14,RA,,1.01,WeatherDisplay:10.37,2013-01-15 00:38:00,
2013-01-14 19:40:00,42.2,40.6,30.23,WSW,257,6.9,6.9,94,0.14,RA,,1.02,WeatherDisplay:10.37,2013-01-15 00:40:00,
2013-01-14 19:42:00,42.0,40.4,30.23,WSW,250,3.5,3.5,94,0.14,RA,,1.02,WeatherDisplay:10.37,2013-01-15 00:42:00,
2013-01-14 19:43:00,41.9,40.3,30.23,WNW,300,3.5,3.5,94,0.13,RA,,1.02,WeatherDisplay:10.37,2013-01-15 00:43:00,
2013-01-14 19:44:00,41.9,40.3,30.23,West,280,3.5,3.5,94,0.13,RA,,1.02,WeatherDisplay:10.37,2013-01-15 00:44:00,
2013-01-14 19:46:00,41.7,40.1,30.23,WSW,254,2.3,2.3,94,0.13,RA,,1.03,WeatherDisplay:10.37,2013-01-15 00:46:00,
2013-01-14 19:47:00,41.7,40.4,30.23,WNW,288,2.3,2.3,95,0.13,RA,,1.03,WeatherDisplay:10.37,2013-01-15 00:47:00,
2013-01-14 19:48:00,41.6,40.3,30.23,WNW,288,2.3,2.3,95,0.12,RA,,1.03,WeatherDisplay:10.37,2013-01-15 00:48:00,
2013-01-14 19:49:00,41.6,40.3,30.23,WNW,290,2.0,2.0,95,0.12,RA,,1.03,WeatherDisplay:10.37,2013-01-15 00:49:00,
2013-01-14 19:51:00,41.5,40.2,30.23,WNW,295,2.3,2.3,95,0.11,RA,,1.03,WeatherDisplay:10.37,2013-01-15 00:51:00,
2013-01-14 19:52:00,41.5,40.2,30.23,NW,307,3.5,3.5,95,0.11,RA,,1.04,WeatherDisplay:10.37,2013-01-15 00:52:00,
2013-01-14 19:54:00,41.4,40.1,30.23,WNW,300,3.5,3.5,95,0.11,RA,,1.04,WeatherDisplay:10.37,2013-01-15 00:54:00,
2013-01-14 19:56:00,41.3,40.0,30.23,West,277,3.5,3.5,95,0.10,RA,,1.04,WeatherDisplay:10.37,2013-01-15 00:56:00,
2013-01-14 19:57:00,41.3,40.0,30.23,WNW,293,2.0,2.0,95,0.10,RA,,1.04,WeatherDisplay:10.37,2013-01-15 00:57:00,
2013-01-14 19:59:00,41.3,40.0,30.23,West,278,1.1,1.1,95,0.09,RA,,1.05,WeatherDisplay:10.37,2013-01-15 00:59:00,
2013-01-14 20:02:00,41.2,39.9,30.23,WNW,298,2.3,2.3,95,0.09,RA,,1.05,WeatherDisplay:10.37,2013-01-15 01:02:00,
2013-01-14 20:04:00,41.1,39.8,30.24,NW,318,1.1,0.0,95,0.09,RA,,1.05,WeatherDisplay:10.37,2013-01-15 01:04:00,
2013-01-14 20:05:00,41.1,39.8,30.24,NW,317,0.0,0.0,95,0.09,RA,,1.05,WeatherDisplay:10.37,2013-01-15 01:05:00,
2013-01-14 20:07:00,41.1,39.8,30.23,NW,317,1.1,0.0,95,0.09,RA,,1.05,WeatherDisplay:10.37,2013-01-15 01:07:00,
2013-01-14 20:09:00,41.0,39.7,30.23,NW,317,1.1,0.0,95,0.09,RA,,1.06,WeatherDisplay:10.37,2013-01-15 01:09:00,
2013-01-14 20:10:00,41.0,39.7,30.23,NW,318,0.0,0.0,95,0.09,RA,,1.06,WeatherDisplay:10.37,2013-01-15 01:10:00,
2013-01-14 20:12:00,41.0,39.7,30.23,NW,318,1.0,1.0,95,0.09,RA,,1.06,WeatherDisplay:10.37,2013-01-15 01:12:00,
2013-01-14 20:15:00,40.9,39.6,30.23,NW,317,0.0,1.0,95,0.00,RA,,1.06,WeatherDisplay:10.37,2013-01-15 01:15:00,
2013-01-14 20:17:00,40.9,39.8,30.23,ESE,122,2.3,2.3,96,0.09,RA,,1.06,WeatherDisplay:10.37,2013-01-15 01:17:00,
2013-01-14 20:20:00,40.8,39.5,30.24,East,92,3.5,3.5,95,0.10,RA,,1.07,WeatherDisplay:10.37,2013-01-15 01:20:00,
2013-01-14 20:21:00,40.8,39.5,30.24,North,5,1.1,1.1,95,0.09,RA,,1.07,WeatherDisplay:10.37,2013-01-15 01:21:00,
2013-01-14 20:22:00,40.7,39.4,30.24,North,4,1.1,0.0,95,0.09,RA,,1.07,WeatherDisplay:10.37,2013-01-15 01:22:00,
2013-01-14 20:23:00,40.7,39.4,30.24,WNW,302,1.1,0.0,95,0.09,RA,,1.07,WeatherDisplay:10.37,2013-01-15 01:23:00,
2013-01-14 20:25:00,40.7,39.4,30.24,SW,219,1.1,0.0,95,0.08,RA,,1.07,WeatherDisplay:10.37,2013-01-15 01:25:00,
2013-01-14 20:26:00,40.7,39.4,30.24,SW,219,0.0,0.0,95,0.08,RA,,1.07,WeatherDisplay:10.37,2013-01-15 01:26:00,
2013-01-14 20:28:00,40.6,39.3,30.24,NNE,30,2.3,2.3,95,0.07,RA,,1.07,WeatherDisplay:10.37,2013-01-15 01:28:00,
2013-01-14 20:30:00,40.6,39.0,30.24,NW,322,1.1,1.1,94,0.07,CLR,,1.07,WeatherDisplay:10.37,2013-01-15 01:30:00,
2013-01-14 20:33:00,40.4,38.8,30.23,ENE,70,2.3,2.3,94,0.07,RA,,1.08,WeatherDisplay:10.37,2013-01-15 01:33:00,
2013-01-14 20:34:00,40.4,38.8,30.23,ENE,69,2.3,2.3,94,0.07,RA,,1.08,WeatherDisplay:10.37,2013-01-15 01:34:00,
2013-01-14 20:35:00,40.3,38.7,30.23,ENE,70,1.1,1.1,94,0.07,RA,,1.08,WeatherDisplay:10.37,2013-01-15 01:35:00,
2013-01-14 20:38:00,40.2,38.6,30.24,ENE,70,0.0,0.0,94,0.07,RA,,1.08,WeatherDisplay:10.37,2013-01-15 01:38:00,
2013-01-14 20:39:00,40.2,38.6,30.24,ENE,70,0.0,0.0,94,0.07,RA,,1.08,WeatherDisplay:10.37,2013-01-15 01:39:00,
2013-01-14 20:40:00,40.2,38.6,30.24,ENE,70,0.0,0.0,94,0.07,RA,,1.09,WeatherDisplay:10.37,2013-01-15 01:40:00,
2013-01-14 20:43:00,40.1,38.5,30.24,WNW,302,0.0,0.0,94,0.07,RA,,1.09,WeatherDisplay:10.37,2013-01-15 01:43:00,
2013-01-14 20:44:00,40.1,38.5,30.24,WNW,303,2.0,2.0,94,0.07,RA,,1.09,WeatherDisplay:10.37,2013-01-15 01:44:00,
2013-01-14 20:45:00,40.1,38.5,30.24,WNW,303,2.3,2.3,94,0.07,RA,,1.09,WeatherDisplay:10.37,2013-01-15 01:45:00,
2013-01-14 20:48:00,40.0,38.4,30.24,NW,307,1.1,1.1,94,0.06,RA,,1.09,WeatherDisplay:10.37,2013-01-15 01:48:00,
2013-01-14 20:49:00,40.0,38.4,30.23,NW,307,1.1,1.1,94,0.06,RA,,1.09,WeatherDisplay:10.37,2013-01-15 01:49:00,
2013-01-14 20:51:00,40.0,38.4,30.23,NW,308,0.0,0.1,94,0.07,RA,,1.10,WeatherDisplay:10.37,2013-01-15 01:51:00,
2013-01-14 20:54:00,40.0,38.4,30.24,NW,307,0.0,0.0,94,0.07,RA,,1.11,WeatherDisplay:10.37,2013-01-15 01:54:00,
2013-01-14 20:56:00,40.0,38.4,30.24,NW,308,0.0,0.0,94,0.07,RA,,1.11,WeatherDisplay:10.37,2013-01-15 01:56:00,
2013-01-14 20:59:00,39.9,38.3,30.24,NW,307,1.1,0.0,94,0.08,RA,,1.12,WeatherDisplay:10.37,2013-01-15 01:59:00,
2013-01-14 21:01:00,39.9,38.3,30.24,NW,307,0.0,0.0,94,0.08,RA,,1.13,WeatherDisplay:10.37,2013-01-15 02:01:00,
2013-01-14 21:04:00,39.9,38.3,30.25,NW,308,0.0,0.0,94,0.08,RA,,1.14,WeatherDisplay:10.37,2013-01-15 02:04:00,
2013-01-14 21:05:00,39.9,38.6,30.25,NW,306,0.0,0.0,95,0.09,RA,,1.14,WeatherDisplay:10.37,2013-01-15 02:05:00,
2013-01-14 21:06:00,39.9,38.6,30.26,West,275,1.1,1.1,95,0.09,RA,,1.14,WeatherDisplay:10.37,2013-01-15 02:06:00,
2013-01-14 21:10:00,39.9,38.6,30.26,West,278,1.1,0.0,95,0.09,RA,,1.15,WeatherDisplay:10.37,2013-01-15 02:10:00,
2013-01-14 21:11:00,39.9,38.6,30.26,West,276,1.1,1.1,95,0.09,RA,,1.16,WeatherDisplay:10.37,2013-01-15 02:11:00,
2013-01-14 21:15:00,39.8,38.5,30.27,West,265,2.0,2.0,95,0.10,RA,,1.17,WeatherDisplay:10.37,2013-01-15 02:15:00,
2013-01-14 21:16:00,39.7,38.4,30.27,WSW,257,1.1,1.1,95,0.11,RA,,1.17,WeatherDisplay:10.37,2013-01-15 02:16:00,
2013-01-14 21:20:00,39.8,38.5,30.27,WNW,290,1.1,1.1,95,0.11,RA,,1.18,WeatherDisplay:10.37,2013-01-15 02:20:00,
2013-01-14 21:21:00,39.7,38.4,30.26,WNW,293,2.3,2.3,95,0.11,RA,,1.18,WeatherDisplay:10.37,2013-01-15 02:21:00,
2013-01-14 21:25:00,39.7,38.4,30.27,WNW,293,2.3,2.3,95,0.12,RA,,1.19,WeatherDisplay:10.37,2013-01-15 02:25:00,
2013-01-14 21:26:00,39.7,38.4,30.27,WNW,292,1.1,1.1,95,0.12,RA,,1.19,WeatherDisplay:10.37,2013-01-15 02:26:00,
2013-01-14 21:27:00,39.7,38.4,30.27,WNW,292,0.0,0.0,95,0.13,RA,,1.20,WeatherDisplay:10.37,2013-01-15 02:27:00,
2013-01-14 21:30:00,39.6,38.3,30.27,WSW,257,1.1,1.1,95,0.13,RA,,1.20,WeatherDisplay:10.37,2013-01-15 02:30:00,
2013-01-14 21:31:00,39.6,38.3,30.27,WSW,256,1.1,1.1,95,0.13,RA,,1.20,WeatherDisplay:10.37,2013-01-15 02:31:00,
2013-01-14 21:32:00,39.6,38.3,30.27,WSW,255,2.3,2.3,95,0.14,RA,,1.21,WeatherDisplay:10.37,2013-01-15 02:32:00,
2013-01-14 21:35:00,39.5,38.2,30.28,WSW,257,2.3,2.3,95,0.13,RA,,1.21,WeatherDisplay:10.37,2013-01-15 02:35:00,
2013-01-14 21:36:00,39.5,38.2,30.27,West,277,2.3,2.3,95,0.13,RA,,1.21,WeatherDisplay:10.37,2013-01-15 02:36:00,
2013-01-14 21:37:00,39.5,38.2,30.27,WSW,255,2.0,2.0,95,0.13,RA,,1.22,WeatherDisplay:10.37,2013-01-15 02:37:00,
2013-01-14 21:40:00,39.4,38.1,30.26,West,281,1.1,1.1,95,0.13,RA,,1.22,WeatherDisplay:10.37,2013-01-15 02:40:00,
2013-01-14 21:41:00,39.4,38.1,30.26,WNW,298,1.1,1.1,95,0.13,RA,,1.22,WeatherDisplay:10.37,2013-01-15 02:41:00,
2013-01-14 21:42:00,39.4,38.1,30.26,WNW,298,1.1,1.1,95,0.13,RA,,1.22,WeatherDisplay:10.37,2013-01-15 02:42:00,
2013-01-14 21:46:00,39.3,38.0,30.26,WNW,298,1.1,0.0,95,0.14,RA,,1.23,WeatherDisplay:10.37,2013-01-15 02:46:00,
2013-01-14 21:47:00,39.3,38.0,30.25,East,87,2.3,2.3,95,0.14,RA,,1.23,WeatherDisplay:10.37,2013-01-15 02:47:00,
2013-01-14 21:48:00,39.3,38.0,30.25,East,86,1.1,1.1,95,0.14,RA,,1.23,WeatherDisplay:10.37,2013-01-15 02:48:00,
2013-01-14 21:51:00,39.2,37.9,30.25,SE,132,1.1,0.0,95,0.13,RA,,1.23,WeatherDisplay:10.37,2013-01-15 02:51:00,
2013-01-14 21:52:00,39.2,37.9,30.25,SE,131,1.0,1.0,95,0.13,RA,,1.23,WeatherDisplay:10.37,2013-01-15 02:52:00,
2013-01-14 21:53:00,39.2,37.9,30.25,SE,127,1.1,1.1,95,0.13,RA,,1.23,WeatherDisplay:10.37,2013-01-15 02:53:00,
2013-01-14 21:56:00,39.2,37.9,30.25,SSE,153,2.3,2.3,95,0.12,CLR,,1.24,WeatherDisplay:10.37,2013-01-15 02:56:00,
2013-01-14 21:57:00,39.1,37.8,30.26,SE,125,2.3,2.3,95,0.13,RA,,1.24,WeatherDisplay:10.37,2013-01-15 02:57:00,
2013-01-14 21:58:00,39.1,37.8,30.26,SE,125,2.3,0.0,95,0.13,RA,,1.24,WeatherDisplay:10.37,2013-01-15 02:58:00,
2013-01-14 22:01:00,39.1,37.8,30.25,SE,138,1.0,1.0,95,0.11,RA,,1.24,WeatherDisplay:10.37,2013-01-15 03:01:00,
2013-01-14 22:02:00,39.1,37.8,30.25,ESE,119,2.0,2.0,95,0.11,RA,,1.24,WeatherDisplay:10.37,2013-01-15 03:02:00,
2013-01-14 22:03:00,39.1,37.8,30.25,SE,139,2.3,2.3,95,0.11,RA,,1.24,WeatherDisplay:10.37,2013-01-15 03:03:00,
2013-01-14 22:07:00,39.0,37.7,30.25,East,101,0.0,0.0,95,0.11,RA,,1.25,WeatherDisplay:10.37,2013-01-15 03:07:00,
2013-01-14 22:08:00,39.0,37.7,30.25,East,101,0.0,0.0,95,0.11,RA,,1.25,WeatherDisplay:10.37,2013-01-15 03:08:00,
2013-01-14 22:09:00,39.0,37.7,30.26,East,100,0.0,0.0,95,0.10,RA,,1.25,WeatherDisplay:10.37,2013-01-15 03:09:00,
2013-01-14 22:12:00,39.0,37.7,30.25,East,100,0.0,0.0,95,0.10,RA,,1.26,WeatherDisplay:10.37,2013-01-15 03:12:00,
2013-01-14 22:13:00,39.0,37.7,30.25,East,101,1.1,1.1,95,0.10,RA,,1.26,WeatherDisplay:10.37,2013-01-15 03:13:00,
2013-01-14 22:14:00,39.0,37.7,30.25,East,98,2.3,2.3,95,0.10,RA,,1.26,WeatherDisplay:10.37,2013-01-15 03:14:00,
2013-01-14 22:17:00,39.0,37.7,30.24,East,98,1.1,1.1,95,0.09,RA,,1.27,WeatherDisplay:10.37,2013-01-15 03:17:00,
2013-01-14 22:18:00,39.0,37.7,30.24,East,96,1.1,1.1,95,0.10,RA,,1.27,WeatherDisplay:10.37,2013-01-15 03:18:00,
2013-01-14 22:20:00,39.1,37.8,30.23,East,98,1.0,2.0,95,0.00,RA,,1.27,WeatherDisplay:10.37,2013-01-15 03:20:00,
2013-01-14 22:22:00,39.1,37.8,30.23,East,82,2.3,2.3,95,0.09,RA,,1.28,WeatherDisplay:10.37,2013-01-15 03:22:00,
2013-01-14 22:23:00,39.1,37.8,30.22,ESE,118,6.0,6.0,95,0.09,RA,,1.28,WeatherDisplay:10.37,2013-01-15 03:23:00,
2013-01-14 22:24:00,39.1,37.8,30.22,East,94,5.8,5.8,95,0.09,RA,,1.28,WeatherDisplay:10.37,2013-01-15 03:24:00,
2013-01-14 22:25:00,39.1,37.8,30.22,East,95,3.0,6.0,95,0.00,RA,,1.28,WeatherDisplay:10.37,2013-01-15 03:25:00,
2013-01-14 22:27:00,39.1,38.1,30.22,SE,144,3.5,3.5,96,0.08,RA,,1.29,WeatherDisplay:10.37,2013-01-15 03:27:00,
2013-01-14 22:28:00,39.1,38.1,30.22,East,99,3.5,3.5,96,0.09,RA,,1.29,WeatherDisplay:10.37,2013-01-15 03:28:00,
2013-01-14 22:29:00,39.0,37.7,30.23,East,92,3.5,3.5,95,0.09,RA,,1.29,WeatherDisplay:10.37,2013-01-15 03:29:00,
2013-01-14 22:30:00,39.0,37.7,30.23,East,92,3.5,3.5,95,0.09,RA,,1.29,WeatherDisplay:10.37,2013-01-15 03:30:00,
2013-01-14 22:33:00,39.0,37.7,30.23,East,101,0.0,0.3,95,0.08,RA,,1.29,WeatherDisplay:10.37,2013-01-15 03:33:00,
2013-01-14 22:34:00,39.0,38.0,30.23,East,92,3.0,3.0,96,0.08,RA,,1.29,WeatherDisplay:10.37,2013-01-15 03:34:00,
2013-01-14 22:35:00,39.0,37.7,30.23,East,88,3.5,3.5,95,0.08,RA,,1.29,WeatherDisplay:10.37,2013-01-15 03:35:00,
2013-01-14 22:38:00,39.0,38.0,30.22,ESE,115,3.5,3.5,96,0.08,RA,,1.30,WeatherDisplay:10.37,2013-01-15 03:38:00,
2013-01-14 22:39:00,39.0,37.7,30.22,SE,127,3.5,3.5,95,0.08,RA,,1.30,WeatherDisplay:10.37,2013-01-15 03:39:00,
2013-01-14 22:40:00,38.9,37.6,30.22,East,91,3.5,3.5,95,0.08,RA,,1.30,WeatherDisplay:10.37,2013-01-15 03:40:00,
2013-01-14 22:43:00,38.9,37.6,30.23,NNE,22,3.5,3.5,95,0.08,RA,,1.30,WeatherDisplay:10.37,2013-01-15 03:43:00,
2013-01-14 22:44:00,38.9,37.6,30.23,NNE,22,0.0,0.0,95,0.09,RA,,1.31,WeatherDisplay:10.37,2013-01-15 03:44:00,
2013-01-14 22:45:00,38.9,37.6,30.23,NW,322,1.1,1.1,95,0.08,RA,,1.31,WeatherDisplay:10.37,2013-01-15 03:45:00,
2013-01-14 22:48:00,38.8,37.5,30.24,NNW,342,1.1,1.1,95,0.08,RA,,1.31,WeatherDisplay:10.37,2013-01-15 03:48:00,
2013-01-14 22:49:00,38.8,37.5,30.24,ENE,73,2.3,2.3,95,0.08,RA,,1.31,WeatherDisplay:10.37,2013-01-15 03:49:00,
2013-01-14 22:50:00,38.8,37.5,30.24,ENE,73,1.1,1.1,95,0.08,RA,,1.31,WeatherDisplay:10.37,2013-01-15 03:50:00,
2013-01-14 22:53:00,38.7,37.4,30.24,NNW,332,1.1,1.1,95,0.09,RA,,1.32,WeatherDisplay:10.37,2013-01-15 03:53:00,
2013-01-14 22:55:00,38.7,37.4,30.23,NW,311,2.3,2.3,95,0.09,RA,,1.32,WeatherDisplay:10.37,2013-01-15 03:55:00,
2013-01-14 22:56:00,38.7,37.4,30.23,NW,310,0.0,0.0,95,0.09,RA,,1.32,WeatherDisplay:10.37,2013-01-15 03:56:00,
2013-01-14 22:58:00,38.7,37.4,30.23,NW,311,0.0,0.1,95,0.08,RA,,1.32,WeatherDisplay:10.37,2013-01-15 03:58:00,
2013-01-14 23:00:00,38.7,37.4,30.24,NW,310,0.0,0.0,95,0.08,RA,,1.32,WeatherDisplay:10.37,2013-01-15 04:00:00,
2013-01-14 23:01:00,38.7,37.4,30.24,NW,310,1.1,0.0,95,0.08,RA,,1.32,WeatherDisplay:10.37,2013-01-15 04:01:00,
2013-01-14 23:03:00,38.6,37.3,30.24,NW,310,1.1,0.0,95,0.08,,,1.32,WeatherDisplay:10.37,2013-01-15 04:03:00,
2013-01-14 23:05:00,38.6,37.3,30.23,NW,310,1.1,1.1,95,0.07,,,1.32,WeatherDisplay:10.37,2013-01-15 04:05:00,
2013-01-14 23:06:00,38.6,37.3,30.24,NW,310,0.0,0.0,95,0.07,,,1.32,WeatherDisplay:10.37,2013-01-15 04:06:00,
2013-01-14 23:09:00,38.6,37.3,30.24,NW,310,0.0,0.0,95,0.08,RA,,1.33,WeatherDisplay:10.37,2013-01-15 04:09:00,
2013-01-14 23:10:00,38.6,37.3,30.24,NW,310,0.0,0.0,95,0.07,RA,,1.33,WeatherDisplay:10.37,2013-01-15 04:10:00,
2013-01-14 23:11:00,38.6,37.3,30.24,NW,310,0.0,0.0,95,0.07,RA,,1.33,WeatherDisplay:10.37,2013-01-15 04:11:00,
2013-01-14 23:14:00,38.6,37.3,30.23,NW,310,0.0,0.0,95,0.07,RA,,1.33,WeatherDisplay:10.37,2013-01-15 04:14:00,
2013-01-14 23:15:00,38.6,37.3,30.23,NW,310,1.1,0.0,95,0.07,RA,,1.33,WeatherDisplay:10.37,2013-01-15 04:15:00,
2013-01-14 23:16:00,38.6,37.3,30.23,NW,310,0.0,0.0,95,0.07,RA,,1.33,WeatherDisplay:10.37,2013-01-15 04:16:00,
2013-01-14 23:19:00,38.6,37.3,30.22,NNE,20,1.1,1.1,95,0.06,,,1.33,WeatherDisplay:10.37,2013-01-15 04:19:00,
2013-01-14 23:21:00,38.6,37.3,30.22,NNE,28,1.1,1.1,95,0.06,,,1.33,WeatherDisplay:10.37,2013-01-15 04:21:00,
2013-01-14 23:25:00,38.6,37.3,30.21,East,82,1.1,1.1,95,0.05,,,1.33,WeatherDisplay:10.37,2013-01-15 04:25:00,
2013-01-14 23:26:00,38.5,37.2,30.22,NNE,26,1.1,1.1,95,0.05,,,1.33,WeatherDisplay:10.37,2013-01-15 04:26:00,
2013-01-14 23:30:00,38.5,37.2,30.22,NNE,18,1.1,1.1,95,0.04,,,1.33,WeatherDisplay:10.37,2013-01-15 04:30:00,
2013-01-14 23:31:00,38.5,37.2,30.22,NNE,18,1.1,1.1,95,0.04,,,1.33,WeatherDisplay:10.37,2013-01-15 04:31:00,
2013-01-14 23:32:00,38.5,37.2,30.22,NNE,19,1.1,1.1,95,0.04,,,1.33,WeatherDisplay:10.37,2013-01-15 04:32:00,
2013-01-14 23:35:00,38.5,37.2,30.22,NNE,19,0.0,0.0,95,0.04,,,1.33,WeatherDisplay:10.37,2013-01-15 04:35:00,
2013-01-14 23:36:00,38.5,37.2,30.22,NNE,28,1.0,1.0,95,0.04,,,1.33,WeatherDisplay:10.37,2013-01-15 04:36:00,
2013-01-14 23:37:00,38.5,37.2,30.22,East,94,2.3,2.3,95,0.03,,,1.33,WeatherDisplay:10.37,2013-01-15 04:37:00,
2013-01-14 23:40:00,38.5,37.2,30.21,East,94,2.3,2.3,95,0.03,,,1.33,WeatherDisplay:10.37,2013-01-15 04:40:00,
2013-01-14 23:41:00,38.5,37.2,30.21,East,92,2.3,2.3,95,0.03,,,1.33,WeatherDisplay:10.37,2013-01-15 04:41:00,
2013-01-14 23:42:00,38.5,37.2,30.21,East,92,1.1,1.1,95,0.03,,,1.33,WeatherDisplay:10.37,2013-01-15 04:42:00,
2013-01-14 23:46:00,38.5,37.2,30.20,NNW,343,1.1,1.1,95,0.03,RA,,1.34,WeatherDisplay:10.37,2013-01-15 04:46:00,
2013-01-14 23:47:00,38.5,37.2,30.20,East,92,4.0,4.0,95,0.03,RA,,1.34,WeatherDisplay:10.37,2013-01-15 04:47:00,
2013-01-14 23:51:00,38.5,37.2,30.20,East,82,3.5,3.5,95,0.03,RA,,1.34,WeatherDisplay:10.37,2013-01-15 04:51:00,
2013-01-14 23:52:00,38.5,37.2,30.20,East,84,3.5,3.5,95,0.03,RA,,1.34,WeatherDisplay:10.37,2013-01-15 04:52:00,
2013-01-14 23:56:00,38.5,37.2,30.20,ENE,69,3.5,3.5,95,0.02,,,1.34,WeatherDisplay:10.37,2013-01-15 04:56:00,
2013-01-14 23:57:00,38.5,37.2,30.20,East,84,3.5,3.5,95,0.02,,,1.34,WeatherDisplay:10.37,2013-01-15 04:57:00,
2013-01-14 23:58:00,38.5,37.2,30.20,NE,54,3.5,3.5,95,0.02,,,1.34,WeatherDisplay:10.37,2013-01-15 04:58:00,